Home > Products > Valid Products > TAF

000
FTUS41 KBOX 020538
TAFBDL
TAF
KBDL 020538Z 0206/0312 00000KT P6SM SCT200
     FM021100 00000KT P6SM BKN110
     FM021400 20007KT P6SM BKN090
     FM021700 20012G20KT P6SM SCT140
     FM030300 20012KT P6SM OVC090
     FM030600 20013KT P6SM -SHRA OVC060=



000
FTUS41 KBOX 020538
TAFBOS
TAF
KBOS 020538Z 0206/0312 29004KT P6SM FEW250
     FM021200 24006KT P6SM BKN110
     FM021600 22010KT P6SM BKN070
     FM022000 22016G25KT P6SM SCT200
     FM030600 22017KT P6SM -SHRA OVC045=



000
FTUS41 KBOX 020538
TAFORH
TAF
KORH 020538Z 0206/0306 24005KT P6SM SCT250
     FM021100 25006KT P6SM BKN110
     FM021600 23011KT P6SM BKN100
     FM021900 22013G22KT P6SM SCT150
     FM030300 23014KT P6SM OVC100 WS020/23045KT=



000
FTUS41 KBOX 020538
TAFBAF
TAF
KBAF 020538Z 0206/0306 00000KT P6SM SCT200
     FM021100 00000KT P6SM BKN100
     FM021400 20006KT P6SM OVC090
     FM021800 21010G20KT P6SM SCT200
     FM030300 21013KT P6SM OVC090=



000
FTUS41 KBOX 020538
TAFPVD
TAF
KPVD 020538Z 0206/0306 VRB03KT P6SM FEW250
     FM021300 22006KT P6SM BKN110
     FM021500 22010KT P6SM BKN090
     FM021800 21014G25KT P6SM BKN120=



000
FTUS41 KBOX 020538
TAFBOS
TAF
KBOS 020538Z 0206/0312 29004KT P6SM FEW250
     FM021200 24006KT P6SM BKN110
     FM021600 22010KT P6SM BKN070
     FM022000 22016G25KT P6SM SCT200
     FM030600 22017KT P6SM -SHRA OVC045=



000
FTUS41 KBOX 020538
TAFPVD
TAF
KPVD 020538Z 0206/0306 VRB03KT P6SM FEW250
     FM021300 22006KT P6SM BKN110
     FM021500 22010KT P6SM BKN090
     FM021800 21014G25KT P6SM BKN120=



000
FTUS41 KBOX 020538
TAFACK
TAF
KACK 020538Z 0206/0306 VRB03KT P6SM FEW200
     FM021200 25008KT P6SM SCT140
     FM021500 23011KT P6SM BKN100
     FM022000 22016KT P6SM SCT150
     FM030300 21017KT P6SM OVC110 WS020/23050KT=



000
FTUS41 KBOX 020538
TAFORH
TAF
KORH 020538Z 0206/0306 24005KT P6SM SCT250
     FM021100 25006KT P6SM BKN110
     FM021600 23011KT P6SM BKN100
     FM021900 22013G22KT P6SM SCT150
     FM030300 23014KT P6SM OVC100 WS020/23045KT=



000
FTUS41 KBOX 020538
TAFACK
TAF
KACK 020538Z 0206/0306 VRB03KT P6SM FEW200
     FM021200 25008KT P6SM SCT140
     FM021500 23011KT P6SM BKN100
     FM022000 22016KT P6SM SCT150
     FM030300 21017KT P6SM OVC110 WS020/23050KT=



000
FTUS41 KBOX 020538
TAFBDL
TAF
KBDL 020538Z 0206/0312 00000KT P6SM SCT200
     FM021100 00000KT P6SM BKN110
     FM021400 20007KT P6SM BKN090
     FM021700 20012G20KT P6SM SCT140
     FM030300 20012KT P6SM OVC090
     FM030600 20013KT P6SM -SHRA OVC060=



000
FTUS41 KBOX 020538
TAFBOS
TAF
KBOS 020538Z 0206/0312 29004KT P6SM FEW250
     FM021200 24006KT P6SM BKN110
     FM021600 22010KT P6SM BKN070
     FM022000 22016G25KT P6SM SCT200
     FM030600 22017KT P6SM -SHRA OVC045=



000
FTUS41 KBOX 020538
TAFBAF
TAF
KBAF 020538Z 0206/0306 00000KT P6SM SCT200
     FM021100 00000KT P6SM BKN100
     FM021400 20006KT P6SM OVC090
     FM021800 21010G20KT P6SM SCT200
     FM030300 21013KT P6SM OVC090=



000
FTUS41 KBOX 020538
TAFORH
TAF
KORH 020538Z 0206/0306 24005KT P6SM SCT250
     FM021100 25006KT P6SM BKN110
     FM021600 23011KT P6SM BKN100
     FM021900 22013G22KT P6SM SCT150
     FM030300 23014KT P6SM OVC100 WS020/23045KT=



000
FTUS41 KBOX 020538
TAFPVD
TAF
KPVD 020538Z 0206/0306 VRB03KT P6SM FEW250
     FM021300 22006KT P6SM BKN110
     FM021500 22010KT P6SM BKN090
     FM021800 21014G25KT P6SM BKN120=



000
FTUS41 KBOX 020346 AAA
TAFPVD
TAF AMD
KPVD 020346Z 0204/0224 24006KT P6SM SKC
     FM021100 24004KT P6SM SCT130
     FM021400 22006KT P6SM BKN060
     FM021700 21009KT P6SM SCT110
     FM022000 21013G22KT P6SM FEW200=



000
FTUS41 KBOX 020345 AAA
TAFBDL
TAF AMD
KBDL 020345Z 0204/0306 VRB03KT P6SM SKC
     FM020600 00000KT P6SM FEW200
     FM021100 VRB03KT P6SM BKN100
     FM021700 20011KT P6SM SCT120
     FM030500 20012KT P6SM -SHRA BKN060=



000
FTUS41 KBOX 020345 AAA
TAFBDL
TAF AMD
KBDL 020345Z 0204/0306 VRB03KT P6SM SKC
     FM020600 00000KT P6SM FEW200
     FM021100 VRB03KT P6SM BKN100
     FM021700 20011KT P6SM SCT120
     FM030500 20012KT P6SM -SHRA BKN060=



000
FTUS41 KBOX 020345 AAA
TAFBOS
TAF AMD
KBOS 020345Z 0204/0306 VRB03KT P6SM SKC
     FM020800 26004KT P6SM SCT200
     FM021300 23005KT P6SM BKN100
     FM021800 20009KT P6SM SCT110
     FM030100 22013G21KT P6SM SCT200=



000
FTUS41 KBOX 012320
TAFBAF
TAF
KBAF 012320Z 0200/0224 30007KT P6SM SKC
     FM020300 VRB03KT P6SM SKC
     FM021100 00000KT P6SM BKN100
     FM021500 20007KT P6SM BKN040
     FM021600 20008KT P6SM SCT080
     FM022100 20012KT P6SM SKC=



000
FTUS41 KBOX 012320
TAFBAF
TAF
KBAF 012320Z 0200/0224 30007KT P6SM SKC
     FM020300 VRB03KT P6SM SKC
     FM021100 00000KT P6SM BKN100
     FM021500 20007KT P6SM BKN040
     FM021600 20008KT P6SM SCT080
     FM022100 20012KT P6SM SKC=



000
FTUS41 KBOX 012320
TAFACK
TAF
KACK 012320Z 0200/0224 20008KT P6SM SKC
     FM020200 26007KT P6SM FEW250
     FM021500 23009KT P6SM BKN090
     FM021700 22011KT P6SM SCT080
     FM022100 21015G22KT P6SM FEW150 WS020/23045KT=



000
FTUS41 KBOX 012320
TAFBDL
TAF
KBDL 012320Z 0200/0306 31008KT P6SM SKC
     FM020300 28004KT P6SM SKC
     FM020600 00000KT P6SM FEW200
     FM021100 VRB03KT P6SM BKN100
     FM021700 20011KT P6SM SCT120
     FM030500 20012KT P6SM -SHRA BKN060=



000
FTUS41 KBOX 012320
TAFBOS
TAF
KBOS 012320Z 0200/0306 30015G20KT P6SM SKC
     FM020200 32006KT P6SM SKC
     FM020800 26004KT P6SM SCT200
     FM021300 23005KT P6SM BKN100
     FM021800 20009KT P6SM SCT110
     FM030100 22013G21KT P6SM SCT200=



000
FTUS41 KBOX 012320
TAFPVD
TAF
KPVD 012320Z 0200/0224 29012G18KT P6SM FEW250
     FM020200 31006KT P6SM SKC
     FM021100 24004KT P6SM SCT130
     FM021400 22006KT P6SM BKN060
     FM021700 21009KT P6SM SCT110
     FM022000 21013G22KT P6SM FEW200=



000
FTUS41 KBOX 012320
TAFORH
TAF
KORH 012320Z 0200/0224 31005KT P6SM SKC
     FM021100 25004KT P6SM BKN110
     FM021700 22007KT P6SM SCT110
     FM022100 22011G20KT P6SM SKC=



000
FTUS41 KBOX 012320
TAFACK
TAF
KACK 012320Z 0200/0224 20008KT P6SM SKC
     FM020200 26007KT P6SM FEW250
     FM021500 23009KT P6SM BKN090
     FM021700 22011KT P6SM SCT080
     FM022100 21015G22KT P6SM FEW150 WS020/23045KT=



000
FTUS41 KBOX 012320
TAFBDL
TAF
KBDL 012320Z 0200/0306 31008KT P6SM SKC
     FM020300 28004KT P6SM SKC
     FM020600 00000KT P6SM FEW200
     FM021100 VRB03KT P6SM BKN100
     FM021700 20011KT P6SM SCT120
     FM030500 20012KT P6SM -SHRA BKN060=



000
FTUS41 KBOX 012320
TAFORH
TAF
KORH 012320Z 0200/0224 31005KT P6SM SKC
     FM021100 25004KT P6SM BKN110
     FM021700 22007KT P6SM SCT110
     FM022100 22011G20KT P6SM SKC=



000
FTUS41 KBOX 012320
TAFBOS
TAF
KBOS 012320Z 0200/0306 30015G20KT P6SM SKC
     FM020200 32006KT P6SM SKC
     FM020800 26004KT P6SM SCT200
     FM021300 23005KT P6SM BKN100
     FM021800 20009KT P6SM SCT110
     FM030100 22013G21KT P6SM SCT200=



000
FTUS41 KBOX 012320
TAFPVD
TAF
KPVD 012320Z 0200/0224 29012G18KT P6SM FEW250
     FM020200 31006KT P6SM SKC
     FM021100 24004KT P6SM SCT130
     FM021400 22006KT P6SM BKN060
     FM021700 21009KT P6SM SCT110
     FM022000 21013G22KT P6SM FEW200=



000
FTUS41 KBOX 012004 AAA
TAFACK
TAF AMD
KACK 012004Z 0120/0218 32011KT P6SM FEW200
     FM012300 28007KT P6SM FEW250
     FM021300 24006KT P6SM SCT130
     FM021500 23009KT P6SM SCT090
     FM021700 22011KT P6SM SCT080=



000
FTUS41 KBOX 012004 AAA
TAFORH
TAF AMD
KORH 012004Z 0120/0218 31007G17KT P6SM SKC
     FM020300 VRB03KT P6SM FEW200
     FM021100 25004KT P6SM BKN110
     FM021700 22007KT P6SM SCT110=



000
FTUS41 KBOX 012004 AAA
TAFBOS
TAF AMD
KBOS 012004Z 0120/0224 32008G18KT P6SM SKC
     FM020100 29004KT P6SM SKC
     FM021200 23004KT P6SM SCT120
     FM021700 20008KT P6SM SCT110=



000
FTUS41 KBOX 012004 AAA
TAFBDL
TAF AMD
KBDL 012004Z 0120/0224 32009KT P6SM SKC
     FM020100 30005KT P6SM SKC
     FM020600 00000KT P6SM FEW200
     FM021100 VRB03KT P6SM BKN100
     FM021600 20008KT P6SM SCT120=



000
FTUS41 KBOX 012004 AAA
TAFBOS
TAF AMD
KBOS 012004Z 0120/0224 32008G18KT P6SM SKC
     FM020100 29004KT P6SM SKC
     FM021200 23004KT P6SM SCT120
     FM021700 20008KT P6SM SCT110=



000
FTUS41 KBOX 012004 AAA
TAFACK
TAF AMD
KACK 012004Z 0120/0218 32011KT P6SM FEW200
     FM012300 28007KT P6SM FEW250
     FM021300 24006KT P6SM SCT130
     FM021500 23009KT P6SM SCT090
     FM021700 22011KT P6SM SCT080=



000
FTUS41 KBOX 012004 AAA
TAFBOS
TAF AMD
KBOS 012004Z 0120/0224 32008G18KT P6SM SKC
     FM020100 29004KT P6SM SKC
     FM021200 23004KT P6SM SCT120
     FM021700 20008KT P6SM SCT110=



000
FTUS41 KBOX 012004 AAA
TAFBDL
TAF AMD
KBDL 012004Z 0120/0224 32009KT P6SM SKC
     FM020100 30005KT P6SM SKC
     FM020600 00000KT P6SM FEW200
     FM021100 VRB03KT P6SM BKN100
     FM021600 20008KT P6SM SCT120=



000
FTUS41 KBOX 012004 AAA
TAFBAF
TAF AMD
KBAF 012004Z 0120/0218 32010KT P6SM FEW200
     FM020000 31006KT P6SM SKC
     FM021100 00000KT P6SM BKN100
     FM021500 20007KT P6SM SCT080=



000
FTUS41 KBOX 012004 AAA
TAFACK
TAF AMD
KACK 012004Z 0120/0218 32011KT P6SM FEW200
     FM012300 28007KT P6SM FEW250
     FM021300 24006KT P6SM SCT130
     FM021500 23009KT P6SM SCT090
     FM021700 22011KT P6SM SCT080=



000
FTUS41 KBOX 012004 AAA
TAFBOS
TAF AMD
KBOS 012004Z 0120/0224 32008G18KT P6SM SKC
     FM020100 29004KT P6SM SKC
     FM021200 23004KT P6SM SCT120
     FM021700 20008KT P6SM SCT110=



000
FTUS41 KBOX 012004 AAA
TAFORH
TAF AMD
KORH 012004Z 0120/0218 31007G17KT P6SM SKC
     FM020300 VRB03KT P6SM FEW200
     FM021100 25004KT P6SM BKN110
     FM021700 22007KT P6SM SCT110=



000
FTUS41 KBOX 012004 AAA
TAFORH
TAF AMD
KORH 012004Z 0120/0218 31007G17KT P6SM SKC
     FM020300 VRB03KT P6SM FEW200
     FM021100 25004KT P6SM BKN110
     FM021700 22007KT P6SM SCT110=



000
FTUS41 KBOX 012004 AAA
TAFBAF
TAF AMD
KBAF 012004Z 0120/0218 32010KT P6SM FEW200
     FM020000 31006KT P6SM SKC
     FM021100 00000KT P6SM BKN100
     FM021500 20007KT P6SM SCT080=



000
FTUS41 KBOX 012004 AAA
TAFBDL
TAF AMD
KBDL 012004Z 0120/0224 32009KT P6SM SKC
     FM020100 30005KT P6SM SKC
     FM020600 00000KT P6SM FEW200
     FM021100 VRB03KT P6SM BKN100
     FM021600 20008KT P6SM SCT120=



000
FTUS41 KBOX 012004 AAA
TAFPVD
TAF AMD
KPVD 012004Z 0120/0218 32009KT P6SM SKC
     FM020100 30004KT P6SM SKC
     FM021100 24004KT P6SM SCT130
     FM021400 22006KT P6SM BKN060
     FM021700 21009KT P6SM SCT110=



000
FTUS41 KBOX 012004 AAA
TAFPVD
TAF AMD
KPVD 012004Z 0120/0218 32009KT P6SM SKC
     FM020100 30004KT P6SM SKC
     FM021100 24004KT P6SM SCT130
     FM021400 22006KT P6SM BKN060
     FM021700 21009KT P6SM SCT110=



000
FTUS41 KBOX 012004 AAA
TAFBAF
TAF AMD
KBAF 012004Z 0120/0218 32010KT P6SM FEW200
     FM020000 31006KT P6SM SKC
     FM021100 00000KT P6SM BKN100
     FM021500 20007KT P6SM SCT080=



000
FTUS41 KBOX 012004 AAA
TAFPVD
TAF AMD
KPVD 012004Z 0120/0218 32009KT P6SM SKC
     FM020100 30004KT P6SM SKC
     FM021100 24004KT P6SM SCT130
     FM021400 22006KT P6SM BKN060
     FM021700 21009KT P6SM SCT110=



000
FTUS41 KBOX 011731
TAFBOS
TAF
KBOS 011731Z 0118/0224 32013G20KT P6SM FEW200
     FM020000 32010KT P6SM SKC
     FM020700 28006KT P6SM FEW250
     FM021200 26005KT P6SM BKN110
     FM021600 21009KT P6SM BKN050=



000
FTUS41 KBOX 011731
TAFACK
TAF
KACK 011731Z 0118/0218 34016KT P6SM FEW150
     FM012300 31009KT P6SM FEW250
     FM020600 31005KT P6SM SKC=



000
FTUS41 KBOX 011731
TAFPVD
TAF
KPVD 011731Z 0118/0218 33011KT P6SM FEW200
     FM020000 33008KT P6SM SKC
     FM020300 29004KT P6SM SKC
     FM020900 00000KT P6SM FEW200=



000
FTUS41 KBOX 011731
TAFBDL
TAF
KBDL 011731Z 0118/0224 32010KT P6SM FEW150
     FM020000 33005KT P6SM SKC
     FM021200 VRB03KT P6SM OVC050
     FM021500 19008KT P6SM BKN050
     FM021600 19010KT P6SM SCT060=



000
FTUS41 KBOX 011731
TAFORH
TAF
KORH 011731Z 0118/0218 33011G17KT P6SM FEW150
     FM020000 32005KT P6SM SKC
     FM021100 26006KT P6SM BKN120=



000
FTUS41 KBOX 011731
TAFBAF
TAF
KBAF 011731Z 0118/0218 32011KT P6SM FEW150
     FM020000 34006KT P6SM SKC=



000
FTUS41 KBOX 011731
TAFPVD
TAF
KPVD 011731Z 0118/0218 33011KT P6SM FEW200
     FM020000 33008KT P6SM SKC
     FM020300 29004KT P6SM SKC
     FM020900 00000KT P6SM FEW200=



000
FTUS41 KBOX 011731
TAFACK
TAF
KACK 011731Z 0118/0218 34016KT P6SM FEW150
     FM012300 31009KT P6SM FEW250
     FM020600 31005KT P6SM SKC=



000
FTUS41 KBOX 011731
TAFORH
TAF
KORH 011731Z 0118/0218 33011G17KT P6SM FEW150
     FM020000 32005KT P6SM SKC
     FM021100 26006KT P6SM BKN120=



000
FTUS41 KBOX 011731
TAFBAF
TAF
KBAF 011731Z 0118/0218 32011KT P6SM FEW150
     FM020000 34006KT P6SM SKC=



000
FTUS41 KBOX 011731
TAFBAF
TAF
KBAF 011731Z 0118/0218 32011KT P6SM FEW150
     FM020000 34006KT P6SM SKC=



000
FTUS41 KBOX 011731
TAFBOS
TAF
KBOS 011731Z 0118/0224 32013G20KT P6SM FEW200
     FM020000 32010KT P6SM SKC
     FM020700 28006KT P6SM FEW250
     FM021200 26005KT P6SM BKN110
     FM021600 21009KT P6SM BKN050=



000
FTUS41 KBOX 011731
TAFBDL
TAF
KBDL 011731Z 0118/0224 32010KT P6SM FEW150
     FM020000 33005KT P6SM SKC
     FM021200 VRB03KT P6SM OVC050
     FM021500 19008KT P6SM BKN050
     FM021600 19010KT P6SM SCT060=



000
FTUS41 KBOX 011731
TAFBDL
TAF
KBDL 011731Z 0118/0224 32010KT P6SM FEW150
     FM020000 33005KT P6SM SKC
     FM021200 VRB03KT P6SM OVC050
     FM021500 19008KT P6SM BKN050
     FM021600 19010KT P6SM SCT060=



000
FTUS41 KBOX 011731
TAFBOS
TAF
KBOS 011731Z 0118/0224 32013G20KT P6SM FEW200
     FM020000 32010KT P6SM SKC
     FM020700 28006KT P6SM FEW250
     FM021200 26005KT P6SM BKN110
     FM021600 21009KT P6SM BKN050=



000
FTUS41 KBOX 011731
TAFORH
TAF
KORH 011731Z 0118/0218 33011G17KT P6SM FEW150
     FM020000 32005KT P6SM SKC
     FM021100 26006KT P6SM BKN120=



000
FTUS41 KBOX 011731
TAFACK
TAF
KACK 011731Z 0118/0218 34016KT P6SM FEW150
     FM012300 31009KT P6SM FEW250
     FM020600 31005KT P6SM SKC=



000
FTUS41 KBOX 011731
TAFPVD
TAF
KPVD 011731Z 0118/0218 33011KT P6SM FEW200
     FM020000 33008KT P6SM SKC
     FM020300 29004KT P6SM SKC
     FM020900 00000KT P6SM FEW200=



000
FTUS41 KBOX 011731
TAFBDL
TAF
KBDL 011731Z 0118/0224 32010KT P6SM FEW150
     FM020000 33005KT P6SM SKC
     FM021200 VRB03KT P6SM OVC050
     FM021500 19008KT P6SM BKN050
     FM021600 19010KT P6SM SCT060=



000
FTUS41 KBOX 011731
TAFORH
TAF
KORH 011731Z 0118/0218 33011G17KT P6SM FEW150
     FM020000 32005KT P6SM SKC
     FM021100 26006KT P6SM BKN120=



000
FTUS41 KBOX 011731
TAFACK
TAF
KACK 011731Z 0118/0218 34016KT P6SM FEW150
     FM012300 31009KT P6SM FEW250
     FM020600 31005KT P6SM SKC=



000
FTUS41 KBOX 011731
TAFPVD
TAF
KPVD 011731Z 0118/0218 33011KT P6SM FEW200
     FM020000 33008KT P6SM SKC
     FM020300 29004KT P6SM SKC
     FM020900 00000KT P6SM FEW200=



000
FTUS41 KBOX 011731
TAFBAF
TAF
KBAF 011731Z 0118/0218 32011KT P6SM FEW150
     FM020000 34006KT P6SM SKC=



000
FTUS41 KBOX 011731
TAFBOS
TAF
KBOS 011731Z 0118/0224 32013G20KT P6SM FEW200
     FM020000 32010KT P6SM SKC
     FM020700 28006KT P6SM FEW250
     FM021200 26005KT P6SM BKN110
     FM021600 21009KT P6SM BKN050=



000
FTUS41 KBOX 011522 AAA
TAFBOS
TAF AMD
KBOS 011522Z 0115/0218 34013G20KT P6SM FEW200
     FM020000 32010KT P6SM SKC
     FM020700 28006KT P6SM FEW250
     FM021200 26005KT P6SM BKN110
     FM021600 21009KT P6SM BKN050=



000
FTUS41 KBOX 011522 AAA
TAFORH
TAF AMD
KORH 011522Z 0115/0212 35011G17KT P6SM FEW150
     FM020000 32005KT P6SM SKC
     FM021100 26006KT P6SM BKN120=



000
FTUS41 KBOX 011522 AAA
TAFBDL
TAF AMD
KBDL 011522Z 0115/0218 34010KT P6SM FEW150
     FM020000 33005KT P6SM SKC
     FM021200 VRB03KT P6SM OVC050
     FM021500 19008KT P6SM BKN050
     FM021600 19010KT P6SM SCT060=



000
FTUS41 KBOX 011522 AAA
TAFBDL
TAF AMD
KBDL 011522Z 0115/0218 34010KT P6SM FEW150
     FM020000 33005KT P6SM SKC
     FM021200 VRB03KT P6SM OVC050
     FM021500 19008KT P6SM BKN050
     FM021600 19010KT P6SM SCT060=



000
FTUS41 KBOX 011522 AAA
TAFBOS
TAF AMD
KBOS 011522Z 0115/0218 34013G20KT P6SM FEW200
     FM020000 32010KT P6SM SKC
     FM020700 28006KT P6SM FEW250
     FM021200 26005KT P6SM BKN110
     FM021600 21009KT P6SM BKN050=



000
FTUS41 KBOX 011522 AAA
TAFACK
TAF AMD
KACK 011522Z 0115/0212 36015G25KT P6SM SCT200
     FM011800 34016KT P6SM FEW150
     FM012300 31009KT P6SM FEW250
     FM020600 31005KT P6SM SKC=



000
FTUS41 KBOX 011522 AAA
TAFPVD
TAF AMD
KPVD 011522Z 0115/0212 36011G19KT P6SM FEW200
     FM020000 33008KT P6SM SKC
     FM020300 29004KT P6SM SKC
     FM020900 00000KT P6SM FEW200=



000
FTUS41 KBOX 011522 AAA
TAFBAF
TAF AMD
KBAF 011522Z 0115/0212 35009KT P6SM FEW150
     FM020000 34005KT P6SM SKC=



000
FTUS41 KBOX 011522 AAA
TAFBOS
TAF AMD
KBOS 011522Z 0115/0218 34013G20KT P6SM FEW200
     FM020000 32010KT P6SM SKC
     FM020700 28006KT P6SM FEW250
     FM021200 26005KT P6SM BKN110
     FM021600 21009KT P6SM BKN050=



000
FTUS41 KBOX 011522 AAA
TAFPVD
TAF AMD
KPVD 011522Z 0115/0212 36011G19KT P6SM FEW200
     FM020000 33008KT P6SM SKC
     FM020300 29004KT P6SM SKC
     FM020900 00000KT P6SM FEW200=



000
FTUS41 KBOX 011522 AAA
TAFACK
TAF AMD
KACK 011522Z 0115/0212 36015G25KT P6SM SCT200
     FM011800 34016KT P6SM FEW150
     FM012300 31009KT P6SM FEW250
     FM020600 31005KT P6SM SKC=



000
FTUS41 KBOX 011522 AAA
TAFBDL
TAF AMD
KBDL 011522Z 0115/0218 34010KT P6SM FEW150
     FM020000 33005KT P6SM SKC
     FM021200 VRB03KT P6SM OVC050
     FM021500 19008KT P6SM BKN050
     FM021600 19010KT P6SM SCT060=



000
FTUS41 KBOX 011522 AAA
TAFORH
TAF AMD
KORH 011522Z 0115/0212 35011G17KT P6SM FEW150
     FM020000 32005KT P6SM SKC
     FM021100 26006KT P6SM BKN120=



000
FTUS41 KBOX 011522 AAA
TAFBOS
TAF AMD
KBOS 011522Z 0115/0218 34013G20KT P6SM FEW200
     FM020000 32010KT P6SM SKC
     FM020700 28006KT P6SM FEW250
     FM021200 26005KT P6SM BKN110
     FM021600 21009KT P6SM BKN050=



000
FTUS41 KBOX 011522 AAA
TAFBAF
TAF AMD
KBAF 011522Z 0115/0212 35009KT P6SM FEW150
     FM020000 34005KT P6SM SKC=



000
FTUS41 KBOX 011522 AAA
TAFACK
TAF AMD
KACK 011522Z 0115/0212 36015G25KT P6SM SCT200
     FM011800 34016KT P6SM FEW150
     FM012300 31009KT P6SM FEW250
     FM020600 31005KT P6SM SKC=



000
FTUS41 KBOX 011522 AAA
TAFORH
TAF AMD
KORH 011522Z 0115/0212 35011G17KT P6SM FEW150
     FM020000 32005KT P6SM SKC
     FM021100 26006KT P6SM BKN120=



000
FTUS41 KBOX 011522 AAA
TAFPVD
TAF AMD
KPVD 011522Z 0115/0212 36011G19KT P6SM FEW200
     FM020000 33008KT P6SM SKC
     FM020300 29004KT P6SM SKC
     FM020900 00000KT P6SM FEW200=



000
FTUS41 KBOX 011121
TAFPVD
TAF
KPVD 011121Z 0112/0212 36011G19KT P6SM FEW200
     FM020000 33008KT P6SM SKC
     FM020300 29004KT P6SM SKC
     FM020900 00000KT P6SM FEW200=



000
FTUS41 KBOX 011121
TAFACK
TAF
KACK 011121Z 0112/0212 36015G25KT P6SM SCT200
     FM011800 34016KT P6SM FEW150
     FM012300 31009KT P6SM FEW250
     FM020600 31005KT P6SM SKC=



000
FTUS41 KBOX 011121
TAFBOS
TAF
KBOS 011121Z 0112/0218 34010KT P6SM FEW200
     FM011500 34013G20KT P6SM FEW200
     FM020000 32010KT P6SM SKC
     FM020700 28006KT P6SM FEW250
     FM021200 26005KT P6SM BKN110
     FM021600 21009KT P6SM BKN050=



000
FTUS41 KBOX 011121
TAFPVD
TAF
KPVD 011121Z 0112/0212 36011G19KT P6SM FEW200
     FM020000 33008KT P6SM SKC
     FM020300 29004KT P6SM SKC
     FM020900 00000KT P6SM FEW200=



000
FTUS41 KBOX 011121
TAFORH
TAF
KORH 011121Z 0112/0212 35011G17KT P6SM FEW150
     FM020000 32005KT P6SM SKC
     FM021100 26006KT P6SM BKN120=



000
FTUS41 KBOX 011121
TAFBOS
TAF
KBOS 011121Z 0112/0218 34010KT P6SM FEW200
     FM011500 34013G20KT P6SM FEW200
     FM020000 32010KT P6SM SKC
     FM020700 28006KT P6SM FEW250
     FM021200 26005KT P6SM BKN110
     FM021600 21009KT P6SM BKN050=



000
FTUS41 KBOX 011121
TAFBDL
TAF
KBDL 011121Z 0112/0218 34006KT P6SM FEW150
     FM011500 34010KT P6SM FEW150
     FM020000 33005KT P6SM SKC
     FM021200 VRB03KT P6SM OVC050
     FM021500 19008KT P6SM BKN050
     FM021600 19010KT P6SM SCT060=



000
FTUS41 KBOX 011121
TAFBDL
TAF
KBDL 011121Z 0112/0218 34006KT P6SM FEW150
     FM011500 34010KT P6SM FEW150
     FM020000 33005KT P6SM SKC
     FM021200 VRB03KT P6SM OVC050
     FM021500 19008KT P6SM BKN050
     FM021600 19010KT P6SM SCT060=



000
FTUS41 KBOX 011121
TAFBAF
TAF
KBAF 011121Z 0112/0212 36005KT P6SM SCT150
     FM011400 35009KT P6SM FEW150
     FM020000 34005KT P6SM SKC=



000
FTUS41 KBOX 011121
TAFACK
TAF
KACK 011121Z 0112/0212 36015G25KT P6SM SCT200
     FM011800 34016KT P6SM FEW150
     FM012300 31009KT P6SM FEW250
     FM020600 31005KT P6SM SKC=



000
FTUS41 KBOX 011121
TAFBAF
TAF
KBAF 011121Z 0112/0212 36005KT P6SM SCT150
     FM011400 35009KT P6SM FEW150
     FM020000 34005KT P6SM SKC=



000
FTUS41 KBOX 011121
TAFORH
TAF
KORH 011121Z 0112/0212 35011G17KT P6SM FEW150
     FM020000 32005KT P6SM SKC
     FM021100 26006KT P6SM BKN120=



000
FTUS41 KBOX 010809 AAA
TAFACK
TAF AMD
KACK 010809Z 0108/0206 28007KT P6SM SCT060
     FM011100 01015G25KT P6SM SCT150
     FM012000 33013KT P6SM FEW150
     FM012300 31009KT P6SM SKC=



000
FTUS41 KBOX 010809 AAA
TAFACK
TAF AMD
KACK 010809Z 0108/0206 28007KT P6SM SCT060
     FM011100 01015G25KT P6SM SCT150
     FM012000 33013KT P6SM FEW150
     FM012300 31009KT P6SM SKC=



000
FTUS41 KBOX 010808 AAA
TAFORH
TAF AMD
KORH 010808Z 0108/0206 35012KT P6SM FEW200
     FM011400 32010KT P6SM SKC
     FM020000 30005KT P6SM SKC=



000
FTUS41 KBOX 010808 AAA
TAFORH
TAF AMD
KORH 010808Z 0108/0206 35012KT P6SM FEW200
     FM011400 32010KT P6SM SKC
     FM020000 30005KT P6SM SKC=



000
FTUS41 KBOX 010808 AAA
TAFPVD
TAF AMD
KPVD 010808Z 0108/0206 36012KT P6SM SCT130
     FM011000 36012G20KT P6SM FEW250
     FM012200 32009KT P6SM SKC
     FM020200 30005KT P6SM SKC=



000
FTUS41 KBOX 010808 AAA
TAFPVD
TAF AMD
KPVD 010808Z 0108/0206 36012KT P6SM SCT130
     FM011000 36012G20KT P6SM FEW250
     FM012200 32009KT P6SM SKC
     FM020200 30005KT P6SM SKC=



000
FTUS41 KBOX 010807 AAA
TAFBDL
TAF AMD
KBDL 010807Z 0108/0212 35005KT P6SM FEW200
     FM012300 31007KT P6SM SKC
     FM020300 VRB03KT P6SM SKC=



000
FTUS41 KBOX 010807 AAA
TAFBDL
TAF AMD
KBDL 010807Z 0108/0212 35005KT P6SM FEW200
     FM012300 31007KT P6SM SKC
     FM020300 VRB03KT P6SM SKC=



000
FTUS41 KBOX 010807 AAA
TAFBDL
TAF AMD
KBDL 010807Z 0108/0212 35005KT P6SM FEW200
     FM012300 31007KT P6SM SKC
     FM020300 VRB03KT P6SM SKC=



000
FTUS41 KBOX 010807 AAA
TAFBDL
TAF AMD
KBDL 010807Z 0108/0212 35005KT P6SM FEW200
     FM012300 31007KT P6SM SKC
     FM020300 VRB03KT P6SM SKC=



000
FTUS41 KBOX 010807 AAA
TAFBOS
TAF AMD
KBOS 010807Z 0108/0212 35010KT P6SM FEW200
     FM011500 34013G22KT P6SM SKC
     FM020100 32009KT P6SM SKC
     FM020700 28006KT P6SM FEW150=



000
FTUS41 KBOX 010534
TAFBOS
TAF
KBOS 010534Z 0106/0212 35008KT P6SM SCT200
     FM011500 34013G22KT P6SM SKC
     FM020100 32009KT P6SM SKC
     FM020700 28006KT P6SM FEW150=



000
FTUS41 KBOX 010534
TAFPVD
TAF
KPVD 010534Z 0106/0206 35007KT P6SM SCT130
     FM011000 36010G18KT P6SM FEW250
     FM012200 32009KT P6SM SKC
     FM020200 30005KT P6SM SKC=



000
FTUS41 KBOX 010534
TAFACK
TAF
KACK 010534Z 0106/0206 18006KT P6SM OVC035
     FM010800 36012KT P6SM BKN060
     FM011000 01017KT P6SM SCT150
     FM012000 33013KT P6SM FEW150
     FM012300 31009KT P6SM SKC=



000
FTUS41 KBOX 010534
TAFBDL
TAF
KBDL 010534Z 0106/0212 35005KT P6SM FEW200
     FM012300 31007KT P6SM SKC
     FM020300 VRB03KT P6SM SKC=



000
FTUS41 KBOX 010534
TAFORH
TAF
KORH 010534Z 0106/0206 36007KT P6SM FEW200
     FM011400 32010KT P6SM SKC
     FM020000 30005KT P6SM SKC=



000
FTUS41 KBOX 010534
TAFBAF
TAF
KBAF 010534Z 0106/0206 36005KT P6SM FEW250
     FM011500 35010KT P6SM SCT140
     FM020000 32005KT P6SM SKC=



000
FTUS41 KBOX 010534
TAFBOS
TAF
KBOS 010534Z 0106/0212 35008KT P6SM SCT200
     FM011500 34013G22KT P6SM SKC
     FM020100 32009KT P6SM SKC
     FM020700 28006KT P6SM FEW150=



000
FTUS41 KBOX 010534
TAFORH
TAF
KORH 010534Z 0106/0206 36007KT P6SM FEW200
     FM011400 32010KT P6SM SKC
     FM020000 30005KT P6SM SKC=



000
FTUS41 KBOX 010534
TAFBAF
TAF
KBAF 010534Z 0106/0206 36005KT P6SM FEW250
     FM011500 35010KT P6SM SCT140
     FM020000 32005KT P6SM SKC=



000
FTUS41 KBOX 010534
TAFPVD
TAF
KPVD 010534Z 0106/0206 35007KT P6SM SCT130
     FM011000 36010G18KT P6SM FEW250
     FM012200 32009KT P6SM SKC
     FM020200 30005KT P6SM SKC=



000
FTUS41 KBOX 010534
TAFACK
TAF
KACK 010534Z 0106/0206 18006KT P6SM OVC035
     FM010800 36012KT P6SM BKN060
     FM011000 01017KT P6SM SCT150
     FM012000 33013KT P6SM FEW150
     FM012300 31009KT P6SM SKC=



000
FTUS41 KBOX 010534
TAFORH
TAF
KORH 010534Z 0106/0206 36007KT P6SM FEW200
     FM011400 32010KT P6SM SKC
     FM020000 30005KT P6SM SKC=



000
FTUS41 KBOX 010534
TAFORH
TAF
KORH 010534Z 0106/0206 36007KT P6SM FEW200
     FM011400 32010KT P6SM SKC
     FM020000 30005KT P6SM SKC=



000
FTUS41 KBOX 010534
TAFBDL
TAF
KBDL 010534Z 0106/0212 35005KT P6SM FEW200
     FM012300 31007KT P6SM SKC
     FM020300 VRB03KT P6SM SKC=



000
FTUS41 KBOX 010534
TAFACK
TAF
KACK 010534Z 0106/0206 18006KT P6SM OVC035
     FM010800 36012KT P6SM BKN060
     FM011000 01017KT P6SM SCT150
     FM012000 33013KT P6SM FEW150
     FM012300 31009KT P6SM SKC=



000
FTUS41 KBOX 010534
TAFBDL
TAF
KBDL 010534Z 0106/0212 35005KT P6SM FEW200
     FM012300 31007KT P6SM SKC
     FM020300 VRB03KT P6SM SKC=



000
FTUS41 KBOX 010534
TAFPVD
TAF
KPVD 010534Z 0106/0206 35007KT P6SM SCT130
     FM011000 36010G18KT P6SM FEW250
     FM012200 32009KT P6SM SKC
     FM020200 30005KT P6SM SKC=



000
FTUS41 KBOX 010534
TAFBOS
TAF
KBOS 010534Z 0106/0212 35008KT P6SM SCT200
     FM011500 34013G22KT P6SM SKC
     FM020100 32009KT P6SM SKC
     FM020700 28006KT P6SM FEW150=



000
FTUS41 KBOX 010534
TAFBOS
TAF
KBOS 010534Z 0106/0212 35008KT P6SM SCT200
     FM011500 34013G22KT P6SM SKC
     FM020100 32009KT P6SM SKC
     FM020700 28006KT P6SM FEW150=



000
FTUS41 KBOX 010534
TAFBDL
TAF
KBDL 010534Z 0106/0212 35005KT P6SM FEW200
     FM012300 31007KT P6SM SKC
     FM020300 VRB03KT P6SM SKC=



000
FTUS41 KBOX 010534
TAFBAF
TAF
KBAF 010534Z 0106/0206 36005KT P6SM FEW250
     FM011500 35010KT P6SM SCT140
     FM020000 32005KT P6SM SKC=



000
FTUS41 KBOX 010534
TAFPVD
TAF
KPVD 010534Z 0106/0206 35007KT P6SM SCT130
     FM011000 36010G18KT P6SM FEW250
     FM012200 32009KT P6SM SKC
     FM020200 30005KT P6SM SKC=



000
FTUS41 KBOX 010534
TAFBAF
TAF
KBAF 010534Z 0106/0206 36005KT P6SM FEW250
     FM011500 35010KT P6SM SCT140
     FM020000 32005KT P6SM SKC=



000
FTUS41 KBOX 010534
TAFACK
TAF
KACK 010534Z 0106/0206 18006KT P6SM OVC035
     FM010800 36012KT P6SM BKN060
     FM011000 01017KT P6SM SCT150
     FM012000 33013KT P6SM FEW150
     FM012300 31009KT P6SM SKC=



000
FTUS41 KBOX 010302 AAA
TAFORH
TAF AMD
KORH 010302Z 0103/0124 31008KT P6SM SCT110
     FM010400 36005KT P6SM SCT045
     FM010600 36007KT P6SM SCT200
     FM011700 32008KT P6SM FEW130=



000
FTUS41 KBOX 010302 AAA
TAFORH
TAF AMD
KORH 010302Z 0103/0124 31008KT P6SM SCT110
     FM010400 36005KT P6SM SCT045
     FM010600 36007KT P6SM SCT200
     FM011700 32008KT P6SM FEW130=



000
FTUS41 KBOX 010301 AAA
TAFBDL
TAF AMD
KBDL 010301Z 0103/0206 19005KT P6SM FEW040
     FM011600 33008KT P6SM SCT120
     FM020100 30004KT P6SM SKC
     FM020500 00000KT P6SM SCT200=



000
FTUS41 KBOX 010301 AAA
TAFBDL
TAF AMD
KBDL 010301Z 0103/0206 19005KT P6SM FEW040
     FM011600 33008KT P6SM SCT120
     FM020100 30004KT P6SM SKC
     FM020500 00000KT P6SM SCT200=



000
FTUS41 KBOX 010300 AAA
TAFBOS
TAF AMD
KBOS 010300Z 0103/0206 03005KT P6SM SCT070
     FM010600 36008KT P6SM FEW250
     FM011700 32009KT P6SM FEW140
     FM020300 30005KT P6SM SKC=



000
FTUS41 KBOX 010300 AAA
TAFBOS
TAF AMD
KBOS 010300Z 0103/0206 03005KT P6SM SCT070
     FM010600 36008KT P6SM FEW250
     FM011700 32009KT P6SM FEW140
     FM020300 30005KT P6SM SKC=



000
FTUS41 KBOX 010300 AAA
TAFBOS
TAF AMD
KBOS 010300Z 0103/0206 03005KT P6SM SCT070
     FM010600 36008KT P6SM FEW250
     FM011700 32009KT P6SM FEW140
     FM020300 30005KT P6SM SKC=



000
FTUS41 KBOX 312320
TAFBAF
TAF
KBAF 312320Z 0100/0124 23006KT P6SM SCT040 OVC060
     FM010200 33004KT P6SM SCT100
     FM011600 33008KT P6SM SCT110=



000
FTUS41 KBOX 312320
TAFBAF
TAF
KBAF 312320Z 0100/0124 23006KT P6SM SCT040 OVC060
     FM010200 33004KT P6SM SCT100
     FM011600 33008KT P6SM SCT110=



000
FTUS41 KBOX 312320
TAFBDL
TAF
KBDL 312320Z 0100/0206 VRB03KT P6SM -RA OVC040
     FM010300 35004KT P6SM SCT040
     FM011600 33008KT P6SM SCT120
     FM020100 30004KT P6SM SKC
     FM020500 00000KT P6SM SCT200=



000
FTUS41 KBOX 312320
TAFACK
TAF
KACK 312320Z 0100/0124 24014KT P6SM OVC060
     FM010200 15004KT P6SM -RA OVC040
     FM010300 00000KT 2SM -SNRA OVC015
     FM010800 01012KT P6SM OVC035
     FM011100 01016G25KT P6SM BKN200
     FM011900 33011KT P6SM SCT150
     FM012100 29006KT P6SM SCT120=



000
FTUS41 KBOX 312320
TAFPVD
TAF
KPVD 312320Z 0100/0124 22008KT P6SM -RA OVC040
     FM010400 01009KT P6SM BKN040
     FM010800 36009KT P6SM SCT200
     FM011900 32007KT P6SM SCT110=



000
FTUS41 KBOX 312320
TAFORH
TAF
KORH 312320Z 0100/0124 27008KT P6SM BKN100
     FM010400 36005KT P6SM SCT045
     FM010600 36007KT P6SM SCT200
     FM011700 32008KT P6SM FEW130=



000
FTUS41 KBOX 312320
TAFORH
TAF
KORH 312320Z 0100/0124 27008KT P6SM BKN100
     FM010400 36005KT P6SM SCT045
     FM010600 36007KT P6SM SCT200
     FM011700 32008KT P6SM FEW130=



000
FTUS41 KBOX 312320
TAFBOS
TAF
KBOS 312320Z 0100/0206 29013KT P6SM FEW060 BKN100
     FM010300 01005KT P6SM BKN040
     FM010600 36008KT P6SM SCT200
     FM011700 32009KT P6SM FEW140
     FM020300 30005KT P6SM SKC=



000
FTUS41 KBOX 312320
TAFACK
TAF
KACK 312320Z 0100/0124 24014KT P6SM OVC060
     FM010200 15004KT P6SM -RA OVC040
     FM010300 00000KT 2SM -SNRA OVC015
     FM010800 01012KT P6SM OVC035
     FM011100 01016G25KT P6SM BKN200
     FM011900 33011KT P6SM SCT150
     FM012100 29006KT P6SM SCT120=



000
FTUS41 KBOX 312320
TAFBOS
TAF
KBOS 312320Z 0100/0206 29013KT P6SM FEW060 BKN100
     FM010300 01005KT P6SM BKN040
     FM010600 36008KT P6SM SCT200
     FM011700 32009KT P6SM FEW140
     FM020300 30005KT P6SM SKC=



000
FTUS41 KBOX 312320
TAFBDL
TAF
KBDL 312320Z 0100/0206 VRB03KT P6SM -RA OVC040
     FM010300 35004KT P6SM SCT040
     FM011600 33008KT P6SM SCT120
     FM020100 30004KT P6SM SKC
     FM020500 00000KT P6SM SCT200=



000
FTUS41 KBOX 312320
TAFPVD
TAF
KPVD 312320Z 0100/0124 22008KT P6SM -RA OVC040
     FM010400 01009KT P6SM BKN040
     FM010800 36009KT P6SM SCT200
     FM011900 32007KT P6SM SCT110=



000
FTUS41 KBOX 312015 AAA
TAFORH
TAF AMD
KORH 312015Z 3120/0118 27010KT P6SM BKN040
     FM010000 VRB05KT P6SM BKN080
     FM010400 01005KT P6SM SCT120=



000
FTUS41 KBOX 312015 AAA
TAFBOS
TAF AMD
KBOS 312015Z 3120/0124 27008G18KT P6SM SCT050
     FM010200 36008KT P6SM BKN040
     FM010500 01008KT P6SM SCT040
     FM011700 33010KT P6SM SKC=



000
FTUS41 KBOX 312015 AAA
TAFPVD
TAF AMD
KPVD 312015Z 3120/0118 26009KT P6SM BKN040
     FM010000 VRB05KT P6SM -SNRA BKN025 OVC030
     FM010500 34007KT P6SM BKN035
     FM010600 02010KT P6SM SCT035=



000
FTUS41 KBOX 312015 AAA
TAFACK
TAF AMD
KACK 312015Z 3120/0118 24014KT P6SM BKN090
     FM010200 23009KT P6SM -RASN OVC025
     FM010300 22006KT 2SM -SN OVC015
     FM010400 26006KT 5SM -SN OVC025
     FM010500 33005KT 6SM -SN OVC025
     FM010700 01008KT P6SM OVC035
     FM010800 01012KT P6SM BKN040=



000
FTUS41 KBOX 312015 AAA
TAFBAF
TAF AMD
KBAF 312015Z 3120/0118 28011KT P6SM BKN045
     FM010200 VRB03KT P6SM SCT040
     FM010600 01007KT P6SM FEW040=



000
FTUS41 KBOX 312015 AAA
TAFORH
TAF AMD
KORH 312015Z 3120/0118 27010KT P6SM BKN040
     FM010000 VRB05KT P6SM BKN080
     FM010400 01005KT P6SM SCT120=



000
FTUS41 KBOX 312015 AAA
TAFBOS
TAF AMD
KBOS 312015Z 3120/0124 27008G18KT P6SM SCT050
     FM010200 36008KT P6SM BKN040
     FM010500 01008KT P6SM SCT040
     FM011700 33010KT P6SM SKC=



000
FTUS41 KBOX 312015 AAA
TAFPVD
TAF AMD
KPVD 312015Z 3120/0118 26009KT P6SM BKN040
     FM010000 VRB05KT P6SM -SNRA BKN025 OVC030
     FM010500 34007KT P6SM BKN035
     FM010600 02010KT P6SM SCT035=



000
FTUS41 KBOX 312015 AAA
TAFBDL
TAF AMD
KBDL 312015Z 3120/0124 27009KT P6SM BKN040
     FM010000 VRB03KT P6SM OVC025
     FM010200 00000KT P6SM BKN040
     FM010400 35004KT P6SM SCT040
     FM011500 33008KT P6SM FEW130=



000
FTUS41 KBOX 312015 AAA
TAFORH
TAF AMD
KORH 312015Z 3120/0118 27010KT P6SM BKN040
     FM010000 VRB05KT P6SM BKN080
     FM010400 01005KT P6SM SCT120=



000
FTUS41 KBOX 312015 AAA
TAFBOS
TAF AMD
KBOS 312015Z 3120/0124 27008G18KT P6SM SCT050
     FM010200 36008KT P6SM BKN040
     FM010500 01008KT P6SM SCT040
     FM011700 33010KT P6SM SKC=



000
FTUS41 KBOX 312015 AAA
TAFBAF
TAF AMD
KBAF 312015Z 3120/0118 28011KT P6SM BKN045
     FM010200 VRB03KT P6SM SCT040
     FM010600 01007KT P6SM FEW040=



000
FTUS41 KBOX 312015 AAA
TAFBDL
TAF AMD
KBDL 312015Z 3120/0124 27009KT P6SM BKN040
     FM010000 VRB03KT P6SM OVC025
     FM010200 00000KT P6SM BKN040
     FM010400 35004KT P6SM SCT040
     FM011500 33008KT P6SM FEW130=



000
FTUS41 KBOX 312015 AAA
TAFACK
TAF AMD
KACK 312015Z 3120/0118 24014KT P6SM BKN090
     FM010200 23009KT P6SM -RASN OVC025
     FM010300 22006KT 2SM -SN OVC015
     FM010400 26006KT 5SM -SN OVC025
     FM010500 33005KT 6SM -SN OVC025
     FM010700 01008KT P6SM OVC035
     FM010800 01012KT P6SM BKN040=



000
FTUS41 KBOX 312015 AAA
TAFPVD
TAF AMD
KPVD 312015Z 3120/0118 26009KT P6SM BKN040
     FM010000 VRB05KT P6SM -SNRA BKN025 OVC030
     FM010500 34007KT P6SM BKN035
     FM010600 02010KT P6SM SCT035=



000
FTUS41 KBOX 312015 AAA
TAFBAF
TAF AMD
KBAF 312015Z 3120/0118 28011KT P6SM BKN045
     FM010200 VRB03KT P6SM SCT040
     FM010600 01007KT P6SM FEW040=



000
FTUS41 KBOX 312015 AAA
TAFBDL
TAF AMD
KBDL 312015Z 3120/0124 27009KT P6SM BKN040
     FM010000 VRB03KT P6SM OVC025
     FM010200 00000KT P6SM BKN040
     FM010400 35004KT P6SM SCT040
     FM011500 33008KT P6SM FEW130=



000
FTUS41 KBOX 311728
TAFBDL
TAF
KBDL 311728Z 3118/0124 27009KT P6SM BKN040
     FM010000 VRB03KT P6SM OVC025
     FM010200 00000KT P6SM BKN040
     FM010400 35004KT P6SM SCT040
     FM011500 33008KT P6SM FEW130=



000
FTUS41 KBOX 311728
TAFPVD
TAF
KPVD 311728Z 3118/0118 27010KT P6SM SCT040
     FM312000 26007KT P6SM BKN040
     FM010000 VRB03KT P6SM -SNRA BKN025 OVC030
     FM010500 34007KT P6SM BKN035
     FM010600 02010KT P6SM SCT035=



000
FTUS41 KBOX 311728
TAFBDL
TAF
KBDL 311728Z 3118/0124 27009KT P6SM BKN040
     FM010000 VRB03KT P6SM OVC025
     FM010200 00000KT P6SM BKN040
     FM010400 35004KT P6SM SCT040
     FM011500 33008KT P6SM FEW130=



000
FTUS41 KBOX 311728
TAFORH
TAF
KORH 311728Z 3118/0118 27008KT P6SM BKN040
     FM010000 VRB03KT P6SM BKN080
     FM010400 01005KT P6SM SCT120=



000
FTUS41 KBOX 311728
TAFACK
TAF
KACK 311728Z 3118/0118 27016KT P6SM SKC
     FM312200 24014KT P6SM BKN090
     FM010200 23009KT P6SM -RASN OVC025
     FM010300 22006KT 2SM -SN OVC015
     FM010400 26006KT 5SM -SN OVC025
     FM010500 33005KT 6SM -SN OVC025
     FM010700 01008KT P6SM OVC035
     FM010800 01012KT P6SM BKN040=



000
FTUS41 KBOX 311728
TAFPVD
TAF
KPVD 311728Z 3118/0118 27010KT P6SM SCT040
     FM312000 26007KT P6SM BKN040
     FM010000 VRB03KT P6SM -SNRA BKN025 OVC030
     FM010500 34007KT P6SM BKN035
     FM010600 02010KT P6SM SCT035=



000
FTUS41 KBOX 311728
TAFACK
TAF
KACK 311728Z 3118/0118 27016KT P6SM SKC
     FM312200 24014KT P6SM BKN090
     FM010200 23009KT P6SM -RASN OVC025
     FM010300 22006KT 2SM -SN OVC015
     FM010400 26006KT 5SM -SN OVC025
     FM010500 33005KT 6SM -SN OVC025
     FM010700 01008KT P6SM OVC035
     FM010800 01012KT P6SM BKN040=



000
FTUS41 KBOX 311728
TAFBOS
TAF
KBOS 311728Z 3118/0124 28008KT P6SM SCT050
     FM010200 36004KT P6SM BKN040
     FM010500 01008KT P6SM SCT040
     FM011700 33010KT P6SM SKC=



000
FTUS41 KBOX 311728
TAFBAF
TAF
KBAF 311728Z 3118/0118 27011KT P6SM BKN045
     FM010200 VRB03KT P6SM SCT040
     FM010600 01007KT P6SM FEW040=



000
FTUS41 KBOX 311728
TAFACK
TAF
KACK 311728Z 3118/0118 27016KT P6SM SKC
     FM312200 24014KT P6SM BKN090
     FM010200 23009KT P6SM -RASN OVC025
     FM010300 22006KT 2SM -SN OVC015
     FM010400 26006KT 5SM -SN OVC025
     FM010500 33005KT 6SM -SN OVC025
     FM010700 01008KT P6SM OVC035
     FM010800 01012KT P6SM BKN040=



000
FTUS41 KBOX 311728
TAFBOS
TAF
KBOS 311728Z 3118/0124 28008KT P6SM SCT050
     FM010200 36004KT P6SM BKN040
     FM010500 01008KT P6SM SCT040
     FM011700 33010KT P6SM SKC=



000
FTUS41 KBOX 311728
TAFBDL
TAF
KBDL 311728Z 3118/0124 27009KT P6SM BKN040
     FM010000 VRB03KT P6SM OVC025
     FM010200 00000KT P6SM BKN040
     FM010400 35004KT P6SM SCT040
     FM011500 33008KT P6SM FEW130=



000
FTUS41 KBOX 311728
TAFBDL
TAF
KBDL 311728Z 3118/0124 27009KT P6SM BKN040
     FM010000 VRB03KT P6SM OVC025
     FM010200 00000KT P6SM BKN040
     FM010400 35004KT P6SM SCT040
     FM011500 33008KT P6SM FEW130=



000
FTUS41 KBOX 311728
TAFBOS
TAF
KBOS 311728Z 3118/0124 28008KT P6SM SCT050
     FM010200 36004KT P6SM BKN040
     FM010500 01008KT P6SM SCT040
     FM011700 33010KT P6SM SKC=



000
FTUS41 KBOX 311728
TAFBAF
TAF
KBAF 311728Z 3118/0118 27011KT P6SM BKN045
     FM010200 VRB03KT P6SM SCT040
     FM010600 01007KT P6SM FEW040=



000
FTUS41 KBOX 311728
TAFBAF
TAF
KBAF 311728Z 3118/0118 27011KT P6SM BKN045
     FM010200 VRB03KT P6SM SCT040
     FM010600 01007KT P6SM FEW040=



000
FTUS41 KBOX 311728
TAFORH
TAF
KORH 311728Z 3118/0118 27008KT P6SM BKN040
     FM010000 VRB03KT P6SM BKN080
     FM010400 01005KT P6SM SCT120=



000
FTUS41 KBOX 311728
TAFPVD
TAF
KPVD 311728Z 3118/0118 27010KT P6SM SCT040
     FM312000 26007KT P6SM BKN040
     FM010000 VRB03KT P6SM -SNRA BKN025 OVC030
     FM010500 34007KT P6SM BKN035
     FM010600 02010KT P6SM SCT035=



000
FTUS41 KBOX 311728
TAFBOS
TAF
KBOS 311728Z 3118/0124 28008KT P6SM SCT050
     FM010200 36004KT P6SM BKN040
     FM010500 01008KT P6SM SCT040
     FM011700 33010KT P6SM SKC=



000
FTUS41 KBOX 311728
TAFORH
TAF
KORH 311728Z 3118/0118 27008KT P6SM BKN040
     FM010000 VRB03KT P6SM BKN080
     FM010400 01005KT P6SM SCT120=



000
FTUS41 KBOX 311521 AAA
TAFBAF
TAF AMD
KBAF 311521Z 3115/0112 30013KT P6SM BKN040
     FM311800 27005KT P6SM BKN045
     FM010200 VRB03KT P6SM SCT040
     FM010600 01007KT P6SM FEW040=



000
FTUS41 KBOX 311521 AAA
TAFBDL
TAF AMD
KBDL 311521Z 3115/0118 30011KT P6SM BKN040
     FM311700 27005KT P6SM BKN040
     FM010000 VRB03KT P6SM OVC025
     FM010200 00000KT P6SM BKN040
     FM010400 35004KT P6SM SCT040
     FM011500 33008KT P6SM FEW130=



000
FTUS41 KBOX 311521 AAA
TAFPVD
TAF AMD
KPVD 311521Z 3115/0112 29012KT P6SM FEW040
     FM311700 27008KT P6SM SCT040
     FM312000 26007KT P6SM BKN040
     FM010000 VRB03KT P6SM -SNRA BKN025 OVC030
     FM010500 34007KT P6SM BKN035
     FM010600 02010KT P6SM BKN035=



000
FTUS41 KBOX 311521 AAA
TAFBOS
TAF AMD
KBOS 311521Z 3115/0118 28012KT P6SM SCT050
     FM312200 27006KT P6SM SCT050
     FM010200 36004KT P6SM BKN040
     FM010500 01008KT P6SM SCT040
     FM011700 33010KT P6SM SKC=



000
FTUS41 KBOX 311521 AAA
TAFORH
TAF AMD
KORH 311521Z 3115/0112 28013KT P6SM BKN040
     FM312000 27008KT P6SM BKN040
     FM010000 VRB03KT P6SM BKN080
     FM010400 01005KT P6SM SCT120=



000
FTUS41 KBOX 311521 AAA
TAFORH
TAF AMD
KORH 311521Z 3115/0112 28013KT P6SM BKN040
     FM312000 27008KT P6SM BKN040
     FM010000 VRB03KT P6SM BKN080
     FM010400 01005KT P6SM SCT120=



000
FTUS41 KBOX 311521 AAA
TAFBOS
TAF AMD
KBOS 311521Z 3115/0118 28012KT P6SM SCT050
     FM312200 27006KT P6SM SCT050
     FM010200 36004KT P6SM BKN040
     FM010500 01008KT P6SM SCT040
     FM011700 33010KT P6SM SKC=



000
FTUS41 KBOX 311521 AAA
TAFBDL
TAF AMD
KBDL 311521Z 3115/0118 30011KT P6SM BKN040
     FM311700 27005KT P6SM BKN040
     FM010000 VRB03KT P6SM OVC025
     FM010200 00000KT P6SM BKN040
     FM010400 35004KT P6SM SCT040
     FM011500 33008KT P6SM FEW130=



000
FTUS41 KBOX 311521 AAA
TAFACK
TAF AMD
KACK 311521Z 3115/0112 27016KT P6SM SKC
     FM312200 24014KT P6SM BKN090
     FM010200 23009KT P6SM -RASN OVC025
     FM010300 22006KT 2SM -SN OVC015
     FM010400 26006KT 5SM -SN OVC025
     FM010500 33005KT 6SM -SN OVC025
     FM010700 01008KT P6SM OVC035
     FM010800 01012KT P6SM BKN040=



000
FTUS41 KBOX 311521 AAA
TAFBAF
TAF AMD
KBAF 311521Z 3115/0112 30013KT P6SM BKN040
     FM311800 27005KT P6SM BKN045
     FM010200 VRB03KT P6SM SCT040
     FM010600 01007KT P6SM FEW040=



000
FTUS41 KBOX 311521 AAA
TAFPVD
TAF AMD
KPVD 311521Z 3115/0112 29012KT P6SM FEW040
     FM311700 27008KT P6SM SCT040
     FM312000 26007KT P6SM BKN040
     FM010000 VRB03KT P6SM -SNRA BKN025 OVC030
     FM010500 34007KT P6SM BKN035
     FM010600 02010KT P6SM BKN035=



000
FTUS41 KBOX 311521 AAA
TAFBOS
TAF AMD
KBOS 311521Z 3115/0118 28012KT P6SM SCT050
     FM312200 27006KT P6SM SCT050
     FM010200 36004KT P6SM BKN040
     FM010500 01008KT P6SM SCT040
     FM011700 33010KT P6SM SKC=



000
FTUS41 KBOX 311521 AAA
TAFBAF
TAF AMD
KBAF 311521Z 3115/0112 30013KT P6SM BKN040
     FM311800 27005KT P6SM BKN045
     FM010200 VRB03KT P6SM SCT040
     FM010600 01007KT P6SM FEW040=



000
FTUS41 KBOX 311521 AAA
TAFORH
TAF AMD
KORH 311521Z 3115/0112 28013KT P6SM BKN040
     FM312000 27008KT P6SM BKN040
     FM010000 VRB03KT P6SM BKN080
     FM010400 01005KT P6SM SCT120=



000
FTUS41 KBOX 311521 AAA
TAFPVD
TAF AMD
KPVD 311521Z 3115/0112 29012KT P6SM FEW040
     FM311700 27008KT P6SM SCT040
     FM312000 26007KT P6SM BKN040
     FM010000 VRB03KT P6SM -SNRA BKN025 OVC030
     FM010500 34007KT P6SM BKN035
     FM010600 02010KT P6SM BKN035=



000
FTUS41 KBOX 311521 AAA
TAFBDL
TAF AMD
KBDL 311521Z 3115/0118 30011KT P6SM BKN040
     FM311700 27005KT P6SM BKN040
     FM010000 VRB03KT P6SM OVC025
     FM010200 00000KT P6SM BKN040
     FM010400 35004KT P6SM SCT040
     FM011500 33008KT P6SM FEW130=



000
FTUS41 KBOX 311521 AAA
TAFBDL
TAF AMD
KBDL 311521Z 3115/0118 30011KT P6SM BKN040
     FM311700 27005KT P6SM BKN040
     FM010000 VRB03KT P6SM OVC025
     FM010200 00000KT P6SM BKN040
     FM010400 35004KT P6SM SCT040
     FM011500 33008KT P6SM FEW130=



000
FTUS41 KBOX 311521 AAA
TAFBOS
TAF AMD
KBOS 311521Z 3115/0118 28012KT P6SM SCT050
     FM312200 27006KT P6SM SCT050
     FM010200 36004KT P6SM BKN040
     FM010500 01008KT P6SM SCT040
     FM011700 33010KT P6SM SKC=



000
FTUS41 KBOX 311521 AAA
TAFBAF
TAF AMD
KBAF 311521Z 3115/0112 30013KT P6SM BKN040
     FM311800 27005KT P6SM BKN045
     FM010200 VRB03KT P6SM SCT040
     FM010600 01007KT P6SM FEW040=



000
FTUS41 KBOX 311521 AAA
TAFORH
TAF AMD
KORH 311521Z 3115/0112 28013KT P6SM BKN040
     FM312000 27008KT P6SM BKN040
     FM010000 VRB03KT P6SM BKN080
     FM010400 01005KT P6SM SCT120=



000
FTUS41 KBOX 311521 AAA
TAFPVD
TAF AMD
KPVD 311521Z 3115/0112 29012KT P6SM FEW040
     FM311700 27008KT P6SM SCT040
     FM312000 26007KT P6SM BKN040
     FM010000 VRB03KT P6SM -SNRA BKN025 OVC030
     FM010500 34007KT P6SM BKN035
     FM010600 02010KT P6SM BKN035=



000
FTUS41 KBOX 311521 AAA
TAFACK
TAF AMD
KACK 311521Z 3115/0112 27016KT P6SM SKC
     FM312200 24014KT P6SM BKN090
     FM010200 23009KT P6SM -RASN OVC025
     FM010300 22006KT 2SM -SN OVC015
     FM010400 26006KT 5SM -SN OVC025
     FM010500 33005KT 6SM -SN OVC025
     FM010700 01008KT P6SM OVC035
     FM010800 01012KT P6SM BKN040=



000
FTUS41 KBOX 311521 AAA
TAFACK
TAF AMD
KACK 311521Z 3115/0112 27016KT P6SM SKC
     FM312200 24014KT P6SM BKN090
     FM010200 23009KT P6SM -RASN OVC025
     FM010300 22006KT 2SM -SN OVC015
     FM010400 26006KT 5SM -SN OVC025
     FM010500 33005KT 6SM -SN OVC025
     FM010700 01008KT P6SM OVC035
     FM010800 01012KT P6SM BKN040=



000
FTUS41 KBOX 311124
TAFORH
TAF
KORH 311124Z 3112/0112 27011KT P6SM SCT150
     FM311600 27009KT P6SM BKN040 BKN150
     FM311900 27005KT P6SM BKN100
     FM010200 33004KT P6SM OVC080
     FM010500 34007KT P6SM SCT200=



000
FTUS41 KBOX 311124
TAFBDL
TAF
KBDL 311124Z 3112/0118 27009KT P6SM BKN035 BKN150
     FM311700 26007KT P6SM BKN040 OVC120
     FM312300 VRB03KT P6SM OVC030
     FM010100 VRB03KT P6SM OVC070
     FM010500 34006KT P6SM SCT200=



000
FTUS41 KBOX 311124
TAFBOS
TAF
KBOS 311124Z 3112/0118 27013G20KT P6SM SCT080 SCT200
     FM312000 28007KT P6SM BKN120
     FM010100 34005KT P6SM OVC080
     FM010500 36009KT P6SM BKN200=



000
FTUS41 KBOX 311124
TAFBAF
TAF
KBAF 311124Z 3112/0112 29008KT P6SM SCT035 BKN150
     FM010000 VRB03KT P6SM SCT035 OVC070
     FM010500 01005KT P6SM SCT200=



000
FTUS41 KBOX 311124
TAFACK
TAF
KACK 311124Z 3112/0112 27013KT P6SM FEW250
     FM312000 25011KT P6SM SCT080 BKN150
     FM312200 25010KT P6SM BKN100
     FM010000 23007KT P6SM -SN OVC045
     FM010200 11006KT 5SM -SN OVC030
     FM010300 07006KT 4SM -SN OVC020
     FM010500 03009KT 6SM -SN OVC015
     FM010800 02014KT P6SM OVC020
     FM011000 01016G23KT P6SM BKN130=



000
FTUS41 KBOX 311124
TAFPVD
TAF
KPVD 311124Z 3112/0112 28009KT P6SM SCT250
     FM311700 26008KT P6SM SCT040 BKN150
     FM311900 26008KT P6SM BKN040 OVC120
     FM010000 VRB03KT P6SM -SN OVC040
     FM010100 16004KT P6SM OVC050
     FM010200 05005KT P6SM OVC060
     FM010700 36009KT P6SM BKN110=



000
FTUS41 KBOX 311124
TAFORH
TAF
KORH 311124Z 3112/0112 27011KT P6SM SCT150
     FM311600 27009KT P6SM BKN040 BKN150
     FM311900 27005KT P6SM BKN100
     FM010200 33004KT P6SM OVC080
     FM010500 34007KT P6SM SCT200=



000
FTUS41 KBOX 311124
TAFACK
TAF
KACK 311124Z 3112/0112 27013KT P6SM FEW250
     FM312000 25011KT P6SM SCT080 BKN150
     FM312200 25010KT P6SM BKN100
     FM010000 23007KT P6SM -SN OVC045
     FM010200 11006KT 5SM -SN OVC030
     FM010300 07006KT 4SM -SN OVC020
     FM010500 03009KT 6SM -SN OVC015
     FM010800 02014KT P6SM OVC020
     FM011000 01016G23KT P6SM BKN130=



000
FTUS41 KBOX 311124
TAFPVD
TAF
KPVD 311124Z 3112/0112 28009KT P6SM SCT250
     FM311700 26008KT P6SM SCT040 BKN150
     FM311900 26008KT P6SM BKN040 OVC120
     FM010000 VRB03KT P6SM -SN OVC040
     FM010100 16004KT P6SM OVC050
     FM010200 05005KT P6SM OVC060
     FM010700 36009KT P6SM BKN110=



000
FTUS41 KBOX 310822 AAA
TAFPVD
TAF AMD
KPVD 310822Z 3108/0106 25007KT P6SM FEW130
     FM311500 28009KT P6SM FEW250
     FM311900 25008KT P6SM BKN040
     FM010000 VRB03KT P6SM OVC035=



000
FTUS41 KBOX 310822 AAA
TAFPVD
TAF AMD
KPVD 310822Z 3108/0106 25007KT P6SM FEW130
     FM311500 28009KT P6SM FEW250
     FM311900 25008KT P6SM BKN040
     FM010000 VRB03KT P6SM OVC035=



000
FTUS41 KBOX 310822 AAA
TAFORH
TAF AMD
KORH 310822Z 3108/0106 26012KT P6SM SCT130
     FM312100 27006KT P6SM BKN110
     FM010200 33004KT P6SM OVC080=



000
FTUS41 KBOX 310822 AAA
TAFORH
TAF AMD
KORH 310822Z 3108/0106 26012KT P6SM SCT130
     FM312100 27006KT P6SM BKN110
     FM010200 33004KT P6SM OVC080=



000
FTUS41 KBOX 310822 AAA
TAFBDL
TAF AMD
KBDL 310822Z 3108/0112 23007KT P6SM FEW060
     FM311800 26007KT P6SM SCT040
     FM312300 VRB03KT P6SM OVC030
     FM010200 VRB03KT P6SM OVC070
     FM010500 34006KT P6SM SCT200=



000
FTUS41 KBOX 310822 AAA
TAFBDL
TAF AMD
KBDL 310822Z 3108/0112 23007KT P6SM FEW060
     FM311800 26007KT P6SM SCT040
     FM312300 VRB03KT P6SM OVC030
     FM010200 VRB03KT P6SM OVC070
     FM010500 34006KT P6SM SCT200=



000
FTUS41 KBOX 310821 AAA
TAFBOS
TAF AMD
KBOS 310821Z 3108/0112 26012G22KT P6SM FEW110
     FM311700 27010KT P6SM FEW200
     FM312300 31006KT P6SM BKN100
     FM010300 01006KT P6SM OVC090
     FM010600 36011KT P6SM BKN200=



000
FTUS41 KBOX 310821 AAA
TAFBOS
TAF AMD
KBOS 310821Z 3108/0112 26012G22KT P6SM FEW110
     FM311700 27010KT P6SM FEW200
     FM312300 31006KT P6SM BKN100
     FM010300 01006KT P6SM OVC090
     FM010600 36011KT P6SM BKN200=



000
FTUS41 KBOX 310537
TAFORH
TAF
KORH 310537Z 3106/0106 26010KT P6SM SCT130
     FM312100 27006KT P6SM BKN110
     FM010200 33004KT P6SM OVC080=



000
FTUS41 KBOX 310537
TAFBOS
TAF
KBOS 310537Z 3106/0112 26010G22KT P6SM FEW110
     FM311700 27010KT P6SM FEW200
     FM312300 31006KT P6SM BKN100
     FM010300 01006KT P6SM OVC090
     FM010600 36011KT P6SM BKN200=



000
FTUS41 KBOX 310537
TAFACK
TAF
KACK 310537Z 3106/0106 25009KT P6SM SCT060
     FM311100 29012G23KT P6SM FEW250
     FM312000 25011KT P6SM SCT130
     FM010000 23007KT P6SM -RASN OVC030
     FM010200 07006KT P6SM -SN OVC020
     FM010500 03009KT P6SM OVC015=



000
FTUS41 KBOX 310537
TAFPVD
TAF
KPVD 310537Z 3106/0106 23005KT P6SM FEW130
     FM311500 28009KT P6SM FEW250
     FM311900 25008KT P6SM BKN040
     FM010000 VRB03KT P6SM OVC035=



000
FTUS41 KBOX 310537
TAFACK
TAF
KACK 310537Z 3106/0106 25009KT P6SM SCT060
     FM311100 29012G23KT P6SM FEW250
     FM312000 25011KT P6SM SCT130
     FM010000 23007KT P6SM -RASN OVC030
     FM010200 07006KT P6SM -SN OVC020
     FM010500 03009KT P6SM OVC015=



000
FTUS41 KBOX 310537
TAFPVD
TAF
KPVD 310537Z 3106/0106 23005KT P6SM FEW130
     FM311500 28009KT P6SM FEW250
     FM311900 25008KT P6SM BKN040
     FM010000 VRB03KT P6SM OVC035=



000
FTUS41 KBOX 310537
TAFBOS
TAF
KBOS 310537Z 3106/0112 26010G22KT P6SM FEW110
     FM311700 27010KT P6SM FEW200
     FM312300 31006KT P6SM BKN100
     FM010300 01006KT P6SM OVC090
     FM010600 36011KT P6SM BKN200=



000
FTUS41 KBOX 310537
TAFBAF
TAF
KBAF 310537Z 3106/0106 29005KT P6SM SCT150
     FM311800 28007KT P6SM SCT040
     FM312000 28007KT P6SM BKN040
     FM312300 VRB03KT P6SM OVC080=



000
FTUS41 KBOX 310537
TAFACK
TAF
KACK 310537Z 3106/0106 25009KT P6SM SCT060
     FM311100 29012G23KT P6SM FEW250
     FM312000 25011KT P6SM SCT130
     FM010000 23007KT P6SM -RASN OVC030
     FM010200 07006KT P6SM -SN OVC020
     FM010500 03009KT P6SM OVC015=



000
FTUS41 KBOX 310537
TAFBDL
TAF
KBDL 310537Z 3106/0112 25010KT P6SM FEW060
     FM311800 26007KT P6SM SCT040
     FM312300 VRB03KT P6SM OVC030
     FM010200 VRB03KT P6SM OVC070
     FM010500 34006KT P6SM SCT200=



000
FTUS41 KBOX 310537
TAFORH
TAF
KORH 310537Z 3106/0106 26010KT P6SM SCT130
     FM312100 27006KT P6SM BKN110
     FM010200 33004KT P6SM OVC080=



000
FTUS41 KBOX 310537
TAFPVD
TAF
KPVD 310537Z 3106/0106 23005KT P6SM FEW130
     FM311500 28009KT P6SM FEW250
     FM311900 25008KT P6SM BKN040
     FM010000 VRB03KT P6SM OVC035=



000
FTUS41 KBOX 310537
TAFBOS
TAF
KBOS 310537Z 3106/0112 26010G22KT P6SM FEW110
     FM311700 27010KT P6SM FEW200
     FM312300 31006KT P6SM BKN100
     FM010300 01006KT P6SM OVC090
     FM010600 36011KT P6SM BKN200=



000
FTUS41 KBOX 310537
TAFBAF
TAF
KBAF 310537Z 3106/0106 29005KT P6SM SCT150
     FM311800 28007KT P6SM SCT040
     FM312000 28007KT P6SM BKN040
     FM312300 VRB03KT P6SM OVC080=



000
FTUS41 KBOX 310537
TAFBDL
TAF
KBDL 310537Z 3106/0112 25010KT P6SM FEW060
     FM311800 26007KT P6SM SCT040
     FM312300 VRB03KT P6SM OVC030
     FM010200 VRB03KT P6SM OVC070
     FM010500 34006KT P6SM SCT200=



000
FTUS41 KBOX 310537
TAFBAF
TAF
KBAF 310537Z 3106/0106 29005KT P6SM SCT150
     FM311800 28007KT P6SM SCT040
     FM312000 28007KT P6SM BKN040
     FM312300 VRB03KT P6SM OVC080=



000
FTUS41 KBOX 310537
TAFBOS
TAF
KBOS 310537Z 3106/0112 26010G22KT P6SM FEW110
     FM311700 27010KT P6SM FEW200
     FM312300 31006KT P6SM BKN100
     FM010300 01006KT P6SM OVC090
     FM010600 36011KT P6SM BKN200=



000
FTUS41 KBOX 310537
TAFPVD
TAF
KPVD 310537Z 3106/0106 23005KT P6SM FEW130
     FM311500 28009KT P6SM FEW250
     FM311900 25008KT P6SM BKN040
     FM010000 VRB03KT P6SM OVC035=



000
FTUS41 KBOX 310537
TAFORH
TAF
KORH 310537Z 3106/0106 26010KT P6SM SCT130
     FM312100 27006KT P6SM BKN110
     FM010200 33004KT P6SM OVC080=



000
FTUS41 KBOX 310537
TAFBAF
TAF
KBAF 310537Z 3106/0106 29005KT P6SM SCT150
     FM311800 28007KT P6SM SCT040
     FM312000 28007KT P6SM BKN040
     FM312300 VRB03KT P6SM OVC080=



000
FTUS41 KBOX 310537
TAFBDL
TAF
KBDL 310537Z 3106/0112 25010KT P6SM FEW060
     FM311800 26007KT P6SM SCT040
     FM312300 VRB03KT P6SM OVC030
     FM010200 VRB03KT P6SM OVC070
     FM010500 34006KT P6SM SCT200=



000
FTUS41 KBOX 310537
TAFACK
TAF
KACK 310537Z 3106/0106 25009KT P6SM SCT060
     FM311100 29012G23KT P6SM FEW250
     FM312000 25011KT P6SM SCT130
     FM010000 23007KT P6SM -RASN OVC030
     FM010200 07006KT P6SM -SN OVC020
     FM010500 03009KT P6SM OVC015=



000
FTUS41 KBOX 310537
TAFBDL
TAF
KBDL 310537Z 3106/0112 25010KT P6SM FEW060
     FM311800 26007KT P6SM SCT040
     FM312300 VRB03KT P6SM OVC030
     FM010200 VRB03KT P6SM OVC070
     FM010500 34006KT P6SM SCT200=



000
FTUS41 KBOX 310537
TAFORH
TAF
KORH 310537Z 3106/0106 26010KT P6SM SCT130
     FM312100 27006KT P6SM BKN110
     FM010200 33004KT P6SM OVC080=



000
FTUS41 KBOX 310257 AAA
TAFPVD
TAF AMD
KPVD 310257Z 3103/3124 23005KT P6SM FEW250
     FM311400 28009KT P6SM FEW250
     FM312100 25007KT P6SM BKN100=



000
FTUS41 KBOX 310257 AAA
TAFPVD
TAF AMD
KPVD 310257Z 3103/3124 23005KT P6SM FEW250
     FM311400 28009KT P6SM FEW250
     FM312100 25007KT P6SM BKN100=



000
FTUS41 KBOX 310257 AAA
TAFPVD
TAF AMD
KPVD 310257Z 3103/3124 23005KT P6SM FEW250
     FM311400 28009KT P6SM FEW250
     FM312100 25007KT P6SM BKN100=



000
FTUS41 KBOX 310256 AAA
TAFBDL
TAF AMD
KBDL 310256Z 3103/0106 23012KT P6SM -SHRA BKN050
     FM310400 27004KT P6SM SCT110
     FM312000 27005KT P6SM BKN110
     FM312300 00000KT P6SM OVC090
     FM010400 35006KT P6SM SCT200=



000
FTUS41 KBOX 310256 AAA
TAFBDL
TAF AMD
KBDL 310256Z 3103/0106 23012KT P6SM -SHRA BKN050
     FM310400 27004KT P6SM SCT110
     FM312000 27005KT P6SM BKN110
     FM312300 00000KT P6SM OVC090
     FM010400 35006KT P6SM SCT200=



000
FTUS41 KBOX 310256 AAA
TAFORH
TAF AMD
KORH 310256Z 3103/3124 27012KT P6SM SCT060=



000
FTUS41 KBOX 310256 AAA
TAFORH
TAF AMD
KORH 310256Z 3103/3124 27012KT P6SM SCT060=



000
FTUS41 KBOX 310256 AAA
TAFORH
TAF AMD
KORH 310256Z 3103/3124 27012KT P6SM SCT060=



000
FTUS41 KBOX 310256 AAA
TAFORH
TAF AMD
KORH 310256Z 3103/3124 27012KT P6SM SCT060=



000
FTUS41 KBOX 310256 AAA
TAFBDL
TAF AMD
KBDL 310256Z 3103/0106 23012KT P6SM -SHRA BKN050
     FM310400 27004KT P6SM SCT110
     FM312000 27005KT P6SM BKN110
     FM312300 00000KT P6SM OVC090
     FM010400 35006KT P6SM SCT200=



000
FTUS41 KBOX 310256 AAA
TAFBDL
TAF AMD
KBDL 310256Z 3103/0106 23012KT P6SM -SHRA BKN050
     FM310400 27004KT P6SM SCT110
     FM312000 27005KT P6SM BKN110
     FM312300 00000KT P6SM OVC090
     FM010400 35006KT P6SM SCT200=



000
FTUS41 KBOX 310255 AAA
TAFBOS
TAF AMD
KBOS 310255Z 3103/0106 26012KT P6SM FEW100
     FM010000 31005KT P6SM BKN120=



000
FTUS41 KBOX 310255 AAA
TAFBOS
TAF AMD
KBOS 310255Z 3103/0106 26012KT P6SM FEW100
     FM010000 31005KT P6SM BKN120=



000
FTUS41 KBOX 310255 AAA
TAFBOS
TAF AMD
KBOS 310255Z 3103/0106 26012KT P6SM FEW100
     FM010000 31005KT P6SM BKN120=



000
FTUS41 KBOX 302321
TAFBDL
TAF
KBDL 302321Z 3100/0106 28007KT P6SM BKN050
     FM310400 26004KT P6SM SCT110
     FM312000 27005KT P6SM BKN110
     FM312300 00000KT P6SM OVC090
     FM010400 35006KT P6SM SCT200=



000
FTUS41 KBOX 302321
TAFBOS
TAF
KBOS 302321Z 3100/0106 25009KT P6SM BKN100
     FM310300 26009KT P6SM SCT250
     FM010000 31005KT P6SM BKN120=



000
FTUS41 KBOX 302321
TAFACK
TAF
KACK 302321Z 3100/3124 24011G18KT P6SM BKN060
     FM310300 25012KT P6SM SCT090
     FM312100 25013KT P6SM BKN110=



000
FTUS41 KBOX 302321
TAFBAF
TAF
KBAF 302321Z 3100/3124 26005KT P6SM BKN060
     FM310400 27005KT P6SM SCT110
     FM311900 28006KT P6SM BKN045=



000
FTUS41 KBOX 302321
TAFORH
TAF
KORH 302321Z 3100/3124 28014KT P6SM BKN060
     FM310300 27009KT P6SM SCT060=



000
FTUS41 KBOX 302321
TAFPVD
TAF
KPVD 302321Z 3100/3124 30005KT P6SM BKN050
     FM310300 29010KT P6SM SCT250
     FM311400 28009KT P6SM FEW250
     FM312100 25007KT P6SM BKN100=



000
FTUS41 KBOX 302321
TAFBAF
TAF
KBAF 302321Z 3100/3124 26005KT P6SM BKN060
     FM310400 27005KT P6SM SCT110
     FM311900 28006KT P6SM BKN045=



000
FTUS41 KBOX 302321
TAFBOS
TAF
KBOS 302321Z 3100/0106 25009KT P6SM BKN100
     FM310300 26009KT P6SM SCT250
     FM010000 31005KT P6SM BKN120=



000
FTUS41 KBOX 302321
TAFBAF
TAF
KBAF 302321Z 3100/3124 26005KT P6SM BKN060
     FM310400 27005KT P6SM SCT110
     FM311900 28006KT P6SM BKN045=



000
FTUS41 KBOX 302321
TAFACK
TAF
KACK 302321Z 3100/3124 24011G18KT P6SM BKN060
     FM310300 25012KT P6SM SCT090
     FM312100 25013KT P6SM BKN110=



000
FTUS41 KBOX 302321
TAFPVD
TAF
KPVD 302321Z 3100/3124 30005KT P6SM BKN050
     FM310300 29010KT P6SM SCT250
     FM311400 28009KT P6SM FEW250
     FM312100 25007KT P6SM BKN100=



000
FTUS41 KBOX 302321
TAFBDL
TAF
KBDL 302321Z 3100/0106 28007KT P6SM BKN050
     FM310400 26004KT P6SM SCT110
     FM312000 27005KT P6SM BKN110
     FM312300 00000KT P6SM OVC090
     FM010400 35006KT P6SM SCT200=



000
FTUS41 KBOX 302321
TAFORH
TAF
KORH 302321Z 3100/3124 28014KT P6SM BKN060
     FM310300 27009KT P6SM SCT060=



000
FTUS41 KBOX 302321
TAFBOS
TAF
KBOS 302321Z 3100/0106 25009KT P6SM BKN100
     FM310300 26009KT P6SM SCT250
     FM010000 31005KT P6SM BKN120=



000
FTUS41 KBOX 302321
TAFORH
TAF
KORH 302321Z 3100/3124 28014KT P6SM BKN060
     FM310300 27009KT P6SM SCT060=



000
FTUS41 KBOX 302321
TAFACK
TAF
KACK 302321Z 3100/3124 24011G18KT P6SM BKN060
     FM310300 25012KT P6SM SCT090
     FM312100 25013KT P6SM BKN110=



000
FTUS41 KBOX 302321
TAFBDL
TAF
KBDL 302321Z 3100/0106 28007KT P6SM BKN050
     FM310400 26004KT P6SM SCT110
     FM312000 27005KT P6SM BKN110
     FM312300 00000KT P6SM OVC090
     FM010400 35006KT P6SM SCT200=



000
FTUS41 KBOX 302321
TAFPVD
TAF
KPVD 302321Z 3100/3124 30005KT P6SM BKN050
     FM310300 29010KT P6SM SCT250
     FM311400 28009KT P6SM FEW250
     FM312100 25007KT P6SM BKN100=



000
FTUS41 KBOX 302321
TAFORH
TAF
KORH 302321Z 3100/3124 28014KT P6SM BKN060
     FM310300 27009KT P6SM SCT060=



000
FTUS41 KBOX 302321
TAFBDL
TAF
KBDL 302321Z 3100/0106 28007KT P6SM BKN050
     FM310400 26004KT P6SM SCT110
     FM312000 27005KT P6SM BKN110
     FM312300 00000KT P6SM OVC090
     FM010400 35006KT P6SM SCT200=



000
FTUS41 KBOX 302321
TAFBAF
TAF
KBAF 302321Z 3100/3124 26005KT P6SM BKN060
     FM310400 27005KT P6SM SCT110
     FM311900 28006KT P6SM BKN045=



000
FTUS41 KBOX 302321
TAFBOS
TAF
KBOS 302321Z 3100/0106 25009KT P6SM BKN100
     FM310300 26009KT P6SM SCT250
     FM010000 31005KT P6SM BKN120=



000
FTUS41 KBOX 302321
TAFACK
TAF
KACK 302321Z 3100/3124 24011G18KT P6SM BKN060
     FM310300 25012KT P6SM SCT090
     FM312100 25013KT P6SM BKN110=



000
FTUS41 KBOX 302321
TAFPVD
TAF
KPVD 302321Z 3100/3124 30005KT P6SM BKN050
     FM310300 29010KT P6SM SCT250
     FM311400 28009KT P6SM FEW250
     FM312100 25007KT P6SM BKN100=



000
FTUS41 KBOX 302009 AAA
TAFACK
TAF AMD
KACK 302009Z 3020/3118 22013KT P6SM OVC040
     FM310100 24012KT P6SM SCT045
     FM310500 27012KT P6SM SCT250=



000
FTUS41 KBOX 302009 AAA
TAFORH
TAF AMD
KORH 302009Z 3020/3118 23011KT P6SM BKN035
     FM302100 25013KT P6SM BKN045
     FM310000 27010KT P6SM SCT045=



000
FTUS41 KBOX 302009 AAA
TAFPVD
TAF AMD
KPVD 302009Z 3020/3118 23009KT P6SM BKN025 OVC060
     FM302100 24007KT P6SM BKN060
     FM310100 25005KT P6SM SCT060
     FM311400 28009KT P6SM FEW250=



000
FTUS41 KBOX 302009 AAA
TAFBAF
TAF AMD
KBAF 302009Z 3020/3118 25011KT P6SM BKN045
     FM310400 27005KT P6SM SCT120=



000
FTUS41 KBOX 302009 AAA
TAFBOS
TAF AMD
KBOS 302009Z 3020/3124 22012KT P6SM SCT025 BKN050
     FM310100 25008KT P6SM SCT080
     FM312300 30006KT P6SM BKN130=



000
FTUS41 KBOX 302009 AAA
TAFBAF
TAF AMD
KBAF 302009Z 3020/3118 25011KT P6SM BKN045
     FM310400 27005KT P6SM SCT120=



000
FTUS41 KBOX 302009 AAA
TAFBDL
TAF AMD
KBDL 302009Z 3020/3124 27009KT P6SM BKN045
     FM310400 26004KT P6SM SCT130
     FM312000 27005KT P6SM BKN110
     FM312300 00000KT P6SM OVC090=



000
FTUS41 KBOX 302009 AAA
TAFBOS
TAF AMD
KBOS 302009Z 3020/3124 22012KT P6SM SCT025 BKN050
     FM310100 25008KT P6SM SCT080
     FM312300 30006KT P6SM BKN130=



000
FTUS41 KBOX 302009 AAA
TAFBDL
TAF AMD
KBDL 302009Z 3020/3124 27009KT P6SM BKN045
     FM310400 26004KT P6SM SCT130
     FM312000 27005KT P6SM BKN110
     FM312300 00000KT P6SM OVC090=



000
FTUS41 KBOX 301728
TAFBOS
TAF
KBOS 301728Z 3018/3124 21012KT P6SM BKN025 OVC035
     FM302100 23008KT P6SM BKN050
     FM302300 28007KT P6SM SCT050
     FM310000 23007KT P6SM BKN250
     FM310600 27011KT P6SM SCT080
     FM312000 28007KT P6SM BKN080=



000
FTUS41 KBOX 301728
TAFBOS
TAF
KBOS 301728Z 3018/3124 21012KT P6SM BKN025 OVC035
     FM302100 23008KT P6SM BKN050
     FM302300 28007KT P6SM SCT050
     FM310000 23007KT P6SM BKN250
     FM310600 27011KT P6SM SCT080
     FM312000 28007KT P6SM BKN080=



000
FTUS41 KBOX 301728
TAFBAF
TAF
KBAF 301728Z 3018/3118 22013KT P6SM BKN025 OVC035
     FM301900 27009KT P6SM BKN035
     FM310300 28008KT P6SM SCT120=



000
FTUS41 KBOX 301728
TAFBDL
TAF
KBDL 301728Z 3018/3124 22012KT P6SM BKN025 OVC035
     FM301900 26009KT P6SM BKN035
     FM310200 28008KT P6SM SCT130
     FM312000 27006KT P6SM BKN080=



000
FTUS41 KBOX 301728
TAFPVD
TAF
KPVD 301728Z 3018/3118 21011KT P6SM BKN025 OVC035
     FM302100 23008KT P6SM BKN035
     FM302300 28004KT P6SM BKN050
     FM310200 25007KT P6SM SCT050=



000
FTUS41 KBOX 301728
TAFBOS
TAF
KBOS 301728Z 3018/3124 21012KT P6SM BKN025 OVC035
     FM302100 23008KT P6SM BKN050
     FM302300 28007KT P6SM SCT050
     FM310000 23007KT P6SM BKN250
     FM310600 27011KT P6SM SCT080
     FM312000 28007KT P6SM BKN080=



000
FTUS41 KBOX 301728
TAFBOS
TAF
KBOS 301728Z 3018/3124 21012KT P6SM BKN025 OVC035
     FM302100 23008KT P6SM BKN050
     FM302300 28007KT P6SM SCT050
     FM310000 23007KT P6SM BKN250
     FM310600 27011KT P6SM SCT080
     FM312000 28007KT P6SM BKN080=



000
FTUS41 KBOX 301728
TAFACK
TAF
KACK 301728Z 3018/3118 18013KT P6SM OVC060
     FM301900 22014KT P6SM OVC040
     FM302200 23012KT P6SM BKN040
     FM310100 25013KT P6SM SCT045
     FM310500 27013KT P6SM FEW250=



000
FTUS41 KBOX 301728
TAFACK
TAF
KACK 301728Z 3018/3118 18013KT P6SM OVC060
     FM301900 22014KT P6SM OVC040
     FM302200 23012KT P6SM BKN040
     FM310100 25013KT P6SM SCT045
     FM310500 27013KT P6SM FEW250=



000
FTUS41 KBOX 301728
TAFBDL
TAF
KBDL 301728Z 3018/3124 22012KT P6SM BKN025 OVC035
     FM301900 26009KT P6SM BKN035
     FM310200 28008KT P6SM SCT130
     FM312000 27006KT P6SM BKN080=



000
FTUS41 KBOX 301728
TAFACK
TAF
KACK 301728Z 3018/3118 18013KT P6SM OVC060
     FM301900 22014KT P6SM OVC040
     FM302200 23012KT P6SM BKN040
     FM310100 25013KT P6SM SCT045
     FM310500 27013KT P6SM FEW250=



000
FTUS41 KBOX 301728
TAFORH
TAF
KORH 301728Z 3018/3118 22013KT P6SM BKN015 OVC025
     FM302000 25009KT P6SM BKN025 OVC035
     FM310200 27009KT P6SM SCT035
     FM310600 28011KT P6SM SCT110=



000
FTUS41 KBOX 301728
TAFORH
TAF
KORH 301728Z 3018/3118 22013KT P6SM BKN015 OVC025
     FM302000 25009KT P6SM BKN025 OVC035
     FM310200 27009KT P6SM SCT035
     FM310600 28011KT P6SM SCT110=



000
FTUS41 KBOX 301728
TAFBAF
TAF
KBAF 301728Z 3018/3118 22013KT P6SM BKN025 OVC035
     FM301900 27009KT P6SM BKN035
     FM310300 28008KT P6SM SCT120=



000
FTUS41 KBOX 301728
TAFPVD
TAF
KPVD 301728Z 3018/3118 21011KT P6SM BKN025 OVC035
     FM302100 23008KT P6SM BKN035
     FM302300 28004KT P6SM BKN050
     FM310200 25007KT P6SM SCT050=



000
FTUS41 KBOX 301728
TAFBAF
TAF
KBAF 301728Z 3018/3118 22013KT P6SM BKN025 OVC035
     FM301900 27009KT P6SM BKN035
     FM310300 28008KT P6SM SCT120=



000
FTUS41 KBOX 301728
TAFACK
TAF
KACK 301728Z 3018/3118 18013KT P6SM OVC060
     FM301900 22014KT P6SM OVC040
     FM302200 23012KT P6SM BKN040
     FM310100 25013KT P6SM SCT045
     FM310500 27013KT P6SM FEW250=



000
FTUS41 KBOX 301728
TAFPVD
TAF
KPVD 301728Z 3018/3118 21011KT P6SM BKN025 OVC035
     FM302100 23008KT P6SM BKN035
     FM302300 28004KT P6SM BKN050
     FM310200 25007KT P6SM SCT050=



000
FTUS41 KBOX 301728
TAFORH
TAF
KORH 301728Z 3018/3118 22013KT P6SM BKN015 OVC025
     FM302000 25009KT P6SM BKN025 OVC035
     FM310200 27009KT P6SM SCT035
     FM310600 28011KT P6SM SCT110=



000
FTUS41 KBOX 301728
TAFBDL
TAF
KBDL 301728Z 3018/3124 22012KT P6SM BKN025 OVC035
     FM301900 26009KT P6SM BKN035
     FM310200 28008KT P6SM SCT130
     FM312000 27006KT P6SM BKN080=



000
FTUS41 KBOX 301455 AAB
TAFBAF
TAF AMD
KBAF 301455Z 3015/3112 21010G20KT P6SM BKN025 OVC035
     FM301900 27009KT P6SM BKN035
     FM310300 28008KT P6SM SCT120=



000
FTUS41 KBOX 301455 AAB
TAFPVD
TAF AMD
KPVD 301455Z 3015/3112 21010G20KT P6SM OVC035
     FM301700 22009KT P6SM BKN025 OVC035
     FM302000 22008KT P6SM BKN050
     FM302300 28004KT P6SM BKN045
     FM310200 25007KT P6SM SCT080=



000
FTUS41 KBOX 301455 AAB
TAFACK
TAF AMD
KACK 301455Z 3015/3112 20012G22KT P6SM -RA OVC060
     FM310000 24013G28KT P6SM BKN060
     FM310100 25013G27KT P6SM SCT045
     FM310400 27013G24KT P6SM SCT250=



000
FTUS41 KBOX 301455 AAB
TAFORH
TAF AMD
KORH 301455Z 3015/3112 22011G21KT P6SM BKN015 OVC025
     FM301900 23008KT P6SM BKN025 OVC035
     FM302100 28009KT P6SM BKN035
     FM310600 28010KT P6SM SCT030
     FM310800 28009KT P6SM SCT140=



000
FTUS41 KBOX 301455 AAB
TAFBAF
TAF AMD
KBAF 301455Z 3015/3112 21010G20KT P6SM BKN025 OVC035
     FM301900 27009KT P6SM BKN035
     FM310300 28008KT P6SM SCT120=



000
FTUS41 KBOX 301455 AAB
TAFBDL
TAF AMD
KBDL 301455Z 3015/3118 22010KT P6SM BKN025 OVC035
     FM302000 28009KT P6SM BKN035
     FM310200 28008KT P6SM SCT150=



000
FTUS41 KBOX 301455 AAB
TAFORH
TAF AMD
KORH 301455Z 3015/3112 22011G21KT P6SM BKN015 OVC025
     FM301900 23008KT P6SM BKN025 OVC035
     FM302100 28009KT P6SM BKN035
     FM310600 28010KT P6SM SCT030
     FM310800 28009KT P6SM SCT140=



000
FTUS41 KBOX 301455 AAB
TAFBOS
TAF AMD
KBOS 301455Z 3015/3118 21012KT P6SM BKN025 OVC035
     FM302000 21009KT P6SM BKN045
     FM302200 26007KT P6SM BKN250
     FM310600 27011G20KT P6SM SCT070=



000
FTUS41 KBOX 301455 AAB
TAFACK
TAF AMD
KACK 301455Z 3015/3112 20012G22KT P6SM -RA OVC060
     FM310000 24013G28KT P6SM BKN060
     FM310100 25013G27KT P6SM SCT045
     FM310400 27013G24KT P6SM SCT250=



000
FTUS41 KBOX 301455 AAB
TAFPVD
TAF AMD
KPVD 301455Z 3015/3112 21010G20KT P6SM OVC035
     FM301700 22009KT P6SM BKN025 OVC035
     FM302000 22008KT P6SM BKN050
     FM302300 28004KT P6SM BKN045
     FM310200 25007KT P6SM SCT080=



000
FTUS41 KBOX 301455 AAB
TAFBOS
TAF AMD
KBOS 301455Z 3015/3118 21012KT P6SM BKN025 OVC035
     FM302000 21009KT P6SM BKN045
     FM302200 26007KT P6SM BKN250
     FM310600 27011G20KT P6SM SCT070=



000
FTUS41 KBOX 301455 AAB
TAFBDL
TAF AMD
KBDL 301455Z 3015/3118 22010KT P6SM BKN025 OVC035
     FM302000 28009KT P6SM BKN035
     FM310200 28008KT P6SM SCT150=



000
FTUS41 KBOX 301231 AAA
TAFACK
TAF AMD
KACK 301231Z 3013/3112 20013KT P6SM BKN140
     FM301500 19014G23KT P6SM -RA OVC070
     FM301600 19015G23KT P6SM OVC060
     FM302200 23014G26KT P6SM BKN045
     FM310100 25013G27KT P6SM SCT045
     FM310400 27013G24KT P6SM SCT250=



000
FTUS41 KBOX 301231 AAA
TAFACK
TAF AMD
KACK 301231Z 3013/3112 20013KT P6SM BKN140
     FM301500 19014G23KT P6SM -RA OVC070
     FM301600 19015G23KT P6SM OVC060
     FM302200 23014G26KT P6SM BKN045
     FM310100 25013G27KT P6SM SCT045
     FM310400 27013G24KT P6SM SCT250=



000
FTUS41 KBOX 301231 AAA
TAFPVD
TAF AMD
KPVD 301231Z 3013/3112 19010G19KT 6SM -RASN OVC090
     FM301330 20011G21KT P6SM OVC080
     FM301700 21014G24KT P6SM OVC035
     FM302000 22011G20KT P6SM BKN050
     FM302300 24007KT P6SM BKN045
     FM310200 25007KT P6SM SCT080=



000
FTUS41 KBOX 301231 AAA
TAFPVD
TAF AMD
KPVD 301231Z 3013/3112 19010G19KT 6SM -RASN OVC090
     FM301330 20011G21KT P6SM OVC080
     FM301700 21014G24KT P6SM OVC035
     FM302000 22011G20KT P6SM BKN050
     FM302300 24007KT P6SM BKN045
     FM310200 25007KT P6SM SCT080=



000
FTUS41 KBOX 301231 AAA
TAFACK
TAF AMD
KACK 301231Z 3013/3112 20013KT P6SM BKN140
     FM301500 19014G23KT P6SM -RA OVC070
     FM301600 19015G23KT P6SM OVC060
     FM302200 23014G26KT P6SM BKN045
     FM310100 25013G27KT P6SM SCT045
     FM310400 27013G24KT P6SM SCT250=



000
FTUS41 KBOX 301231 AAA
TAFACK
TAF AMD
KACK 301231Z 3013/3112 20013KT P6SM BKN140
     FM301500 19014G23KT P6SM -RA OVC070
     FM301600 19015G23KT P6SM OVC060
     FM302200 23014G26KT P6SM BKN045
     FM310100 25013G27KT P6SM SCT045
     FM310400 27013G24KT P6SM SCT250=



000
FTUS41 KBOX 301231 AAA
TAFPVD
TAF AMD
KPVD 301231Z 3013/3112 19010G19KT 6SM -RASN OVC090
     FM301330 20011G21KT P6SM OVC080
     FM301700 21014G24KT P6SM OVC035
     FM302000 22011G20KT P6SM BKN050
     FM302300 24007KT P6SM BKN045
     FM310200 25007KT P6SM SCT080=



000
FTUS41 KBOX 301231 AAA
TAFPVD
TAF AMD
KPVD 301231Z 3013/3112 19010G19KT 6SM -RASN OVC090
     FM301330 20011G21KT P6SM OVC080
     FM301700 21014G24KT P6SM OVC035
     FM302000 22011G20KT P6SM BKN050
     FM302300 24007KT P6SM BKN045
     FM310200 25007KT P6SM SCT080=



000
FTUS41 KBOX 301229 AAA
TAFBOS
TAF AMD
KBOS 301229Z 3012/3118 19010G20KT P6SM -SN OVC090
     FM301300 19011G21KT 5SM -SNRA OVC090
      TEMPO 3013/3014 2SM -SN OVC025
     FM301400 20012G24KT P6SM -RA OVC080
     FM301600 20014G25KT P6SM OVC045
     FM301800 21015G23KT P6SM OVC035
     FM302000 22012KT P6SM BKN045
     FM302300 23008KT P6SM BKN080=



000
FTUS41 KBOX 301229 AAA
TAFBDL
TAF AMD
KBDL 301229Z 3012/3118 21013G23KT P6SM -SN OVC035
     FM301400 19011G21KT P6SM OVC040
     FM301700 21010G20KT P6SM BKN035
     FM302000 25008KT P6SM BKN040
     FM310200 28008KT P6SM SCT150
     FM310600 28008KT P6SM BKN110
     FM310700 28008KT P6SM SCT140=



000
FTUS41 KBOX 301229 AAA
TAFBDL
TAF AMD
KBDL 301229Z 3012/3118 21013G23KT P6SM -SN OVC035
     FM301400 19011G21KT P6SM OVC040
     FM301700 21010G20KT P6SM BKN035
     FM302000 25008KT P6SM BKN040
     FM310200 28008KT P6SM SCT150
     FM310600 28008KT P6SM BKN110
     FM310700 28008KT P6SM SCT140=



000
FTUS41 KBOX 301229 AAA
TAFBAF
TAF AMD
KBAF 301229Z 3012/3112 20013G23KT P6SM -SN OVC035
     FM301400 19010G22KT P6SM OVC035
     FM301600 20010G22KT P6SM OVC040
     FM301700 21009KT P6SM BKN030
     FM301900 23009KT P6SM BKN040
     FM310300 28008KT P6SM SCT120
     FM310400 28007KT P6SM BKN080
     FM310800 28007KT P6SM SCT150=



000
FTUS41 KBOX 301229 AAA
TAFORH
TAF AMD
KORH 301229Z 3012/3112 21011G21KT 2SM -SN OVC050
     FM301300 21012G22KT 6SM -SN OVC045
     FM301500 20013G26KT P6SM -RASN OVC045
     FM301600 22013G24KT P6SM OVC035
     FM310600 28010G20KT P6SM SCT030
     FM310800 28009KT P6SM SCT140=



000
FTUS41 KBOX 301229 AAA
TAFBAF
TAF AMD
KBAF 301229Z 3012/3112 20013G23KT P6SM -SN OVC035
     FM301400 19010G22KT P6SM OVC035
     FM301600 20010G22KT P6SM OVC040
     FM301700 21009KT P6SM BKN030
     FM301900 23009KT P6SM BKN040
     FM310300 28008KT P6SM SCT120
     FM310400 28007KT P6SM BKN080
     FM310800 28007KT P6SM SCT150=



000
FTUS41 KBOX 301229 AAA
TAFBOS
TAF AMD
KBOS 301229Z 3012/3118 19010G20KT P6SM -SN OVC090
     FM301300 19011G21KT 5SM -SNRA OVC090
      TEMPO 3013/3014 2SM -SN OVC025
     FM301400 20012G24KT P6SM -RA OVC080
     FM301600 20014G25KT P6SM OVC045
     FM301800 21015G23KT P6SM OVC035
     FM302000 22012KT P6SM BKN045
     FM302300 23008KT P6SM BKN080=



000
FTUS41 KBOX 301229 AAA
TAFBOS
TAF AMD
KBOS 301229Z 3012/3118 19010G20KT P6SM -SN OVC090
     FM301300 19011G21KT 5SM -SNRA OVC090
      TEMPO 3013/3014 2SM -SN OVC025
     FM301400 20012G24KT P6SM -RA OVC080
     FM301600 20014G25KT P6SM OVC045
     FM301800 21015G23KT P6SM OVC035
     FM302000 22012KT P6SM BKN045
     FM302300 23008KT P6SM BKN080=



000
FTUS41 KBOX 301229 AAA
TAFBDL
TAF AMD
KBDL 301229Z 3012/3118 21013G23KT P6SM -SN OVC035
     FM301400 19011G21KT P6SM OVC040
     FM301700 21010G20KT P6SM BKN035
     FM302000 25008KT P6SM BKN040
     FM310200 28008KT P6SM SCT150
     FM310600 28008KT P6SM BKN110
     FM310700 28008KT P6SM SCT140=



000
FTUS41 KBOX 301229 AAA
TAFBAF
TAF AMD
KBAF 301229Z 3012/3112 20013G23KT P6SM -SN OVC035
     FM301400 19010G22KT P6SM OVC035
     FM301600 20010G22KT P6SM OVC040
     FM301700 21009KT P6SM BKN030
     FM301900 23009KT P6SM BKN040
     FM310300 28008KT P6SM SCT120
     FM310400 28007KT P6SM BKN080
     FM310800 28007KT P6SM SCT150=



000
FTUS41 KBOX 301229 AAA
TAFORH
TAF AMD
KORH 301229Z 3012/3112 21011G21KT 2SM -SN OVC050
     FM301300 21012G22KT 6SM -SN OVC045
     FM301500 20013G26KT P6SM -RASN OVC045
     FM301600 22013G24KT P6SM OVC035
     FM310600 28010G20KT P6SM SCT030
     FM310800 28009KT P6SM SCT140=



000
FTUS41 KBOX 301229 AAA
TAFBOS
TAF AMD
KBOS 301229Z 3012/3118 19010G20KT P6SM -SN OVC090
     FM301300 19011G21KT 5SM -SNRA OVC090
      TEMPO 3013/3014 2SM -SN OVC025
     FM301400 20012G24KT P6SM -RA OVC080
     FM301600 20014G25KT P6SM OVC045
     FM301800 21015G23KT P6SM OVC035
     FM302000 22012KT P6SM BKN045
     FM302300 23008KT P6SM BKN080=



000
FTUS41 KBOX 301229 AAA
TAFBDL
TAF AMD
KBDL 301229Z 3012/3118 21013G23KT P6SM -SN OVC035
     FM301400 19011G21KT P6SM OVC040
     FM301700 21010G20KT P6SM BKN035
     FM302000 25008KT P6SM BKN040
     FM310200 28008KT P6SM SCT150
     FM310600 28008KT P6SM BKN110
     FM310700 28008KT P6SM SCT140=



000
FTUS41 KBOX 301229 AAA
TAFORH
TAF AMD
KORH 301229Z 3012/3112 21011G21KT 2SM -SN OVC050
     FM301300 21012G22KT 6SM -SN OVC045
     FM301500 20013G26KT P6SM -RASN OVC045
     FM301600 22013G24KT P6SM OVC035
     FM310600 28010G20KT P6SM SCT030
     FM310800 28009KT P6SM SCT140=



000
FTUS41 KBOX 301123
TAFBOS
TAF
KBOS 301123Z 3012/3118 19015KT P6SM BKN080
     FM301400 20013G26KT P6SM OVC025
     FM301800 22015G23KT P6SM -SHRA OVC025
     FM302100 23009KT P6SM BKN030
     FM302300 23008KT P6SM BKN250
     FM310600 27011G20KT P6SM SCT060=



000
FTUS41 KBOX 301123
TAFPVD
TAF
KPVD 301123Z 3012/3112 18010G15KT P6SM BKN080
     FM301400 20012G20KT P6SM -SHRA OVC025
     FM301800 21014G23KT P6SM OVC025
     FM302000 22011G20KT P6SM BKN030
     FM302300 24007KT P6SM BKN040
     FM310200 25007KT P6SM SCT060=



000
FTUS41 KBOX 301123
TAFBDL
TAF
KBDL 301123Z 3012/3118 21010G18KT P6SM OVC030
     FM301300 19010G20KT P6SM OVC025
     FM301800 21009KT P6SM BKN030
     FM302000 25008KT P6SM BKN040
     FM310200 28008KT P6SM SCT090=



000
FTUS41 KBOX 301123
TAFBAF
TAF
KBAF 301123Z 3012/3112 21012G18KT P6SM OVC025
     FM301500 19011G23KT P6SM OVC025
     FM301900 23009KT P6SM BKN030
     FM310200 28008KT P6SM SCT150
     FM310500 28007KT P6SM BKN040
     FM310800 28007KT P6SM SCT150=



000
FTUS41 KBOX 301123
TAFACK
TAF
KACK 301123Z 3012/3112 20013KT P6SM BKN130
     FM301600 19015G23KT P6SM OVC025
     FM302200 23014G26KT P6SM -SHRA BKN040
     FM310000 24013G28KT P6SM SCT060
     FM310600 28013G21KT P6SM FEW080=



000
FTUS41 KBOX 301123
TAFPVD
TAF
KPVD 301123Z 3012/3112 18010G15KT P6SM BKN080
     FM301400 20012G20KT P6SM -SHRA OVC025
     FM301800 21014G23KT P6SM OVC025
     FM302000 22011G20KT P6SM BKN030
     FM302300 24007KT P6SM BKN040
     FM310200 25007KT P6SM SCT060=



000
FTUS41 KBOX 301123
TAFACK
TAF
KACK 301123Z 3012/3112 20013KT P6SM BKN130
     FM301600 19015G23KT P6SM OVC025
     FM302200 23014G26KT P6SM -SHRA BKN040
     FM310000 24013G28KT P6SM SCT060
     FM310600 28013G21KT P6SM FEW080=



000
FTUS41 KBOX 301123
TAFBAF
TAF
KBAF 301123Z 3012/3112 21012G18KT P6SM OVC025
     FM301500 19011G23KT P6SM OVC025
     FM301900 23009KT P6SM BKN030
     FM310200 28008KT P6SM SCT150
     FM310500 28007KT P6SM BKN040
     FM310800 28007KT P6SM SCT150=



000
FTUS41 KBOX 301123
TAFORH
TAF
KORH 301123Z 3012/3112 21011G20KT P6SM OVC045
     FM301400 21012G24KT P6SM OVC025
     FM301900 23011G22KT P6SM BKN030
     FM302100 24010G22KT P6SM BKN035
     FM310100 27008KT P6SM SCT070
     FM310600 28010G20KT P6SM SCT090=



000
FTUS41 KBOX 301123
TAFBAF
TAF
KBAF 301123Z 3012/3112 21012G18KT P6SM OVC025
     FM301500 19011G23KT P6SM OVC025
     FM301900 23009KT P6SM BKN030
     FM310200 28008KT P6SM SCT150
     FM310500 28007KT P6SM BKN040
     FM310800 28007KT P6SM SCT150=



000
FTUS41 KBOX 301123
TAFORH
TAF
KORH 301123Z 3012/3112 21011G20KT P6SM OVC045
     FM301400 21012G24KT P6SM OVC025
     FM301900 23011G22KT P6SM BKN030
     FM302100 24010G22KT P6SM BKN035
     FM310100 27008KT P6SM SCT070
     FM310600 28010G20KT P6SM SCT090=



000
FTUS41 KBOX 301123
TAFBOS
TAF
KBOS 301123Z 3012/3118 19015KT P6SM BKN080
     FM301400 20013G26KT P6SM OVC025
     FM301800 22015G23KT P6SM -SHRA OVC025
     FM302100 23009KT P6SM BKN030
     FM302300 23008KT P6SM BKN250
     FM310600 27011G20KT P6SM SCT060=



000
FTUS41 KBOX 301123
TAFBDL
TAF
KBDL 301123Z 3012/3118 21010G18KT P6SM OVC030
     FM301300 19010G20KT P6SM OVC025
     FM301800 21009KT P6SM BKN030
     FM302000 25008KT P6SM BKN040
     FM310200 28008KT P6SM SCT090=



000
FTUS41 KBOX 301123
TAFBOS
TAF
KBOS 301123Z 3012/3118 19015KT P6SM BKN080
     FM301400 20013G26KT P6SM OVC025
     FM301800 22015G23KT P6SM -SHRA OVC025
     FM302100 23009KT P6SM BKN030
     FM302300 23008KT P6SM BKN250
     FM310600 27011G20KT P6SM SCT060=



000
FTUS41 KBOX 301123
TAFACK
TAF
KACK 301123Z 3012/3112 20013KT P6SM BKN130
     FM301600 19015G23KT P6SM OVC025
     FM302200 23014G26KT P6SM -SHRA BKN040
     FM310000 24013G28KT P6SM SCT060
     FM310600 28013G21KT P6SM FEW080=



000
FTUS41 KBOX 301123
TAFPVD
TAF
KPVD 301123Z 3012/3112 18010G15KT P6SM BKN080
     FM301400 20012G20KT P6SM -SHRA OVC025
     FM301800 21014G23KT P6SM OVC025
     FM302000 22011G20KT P6SM BKN030
     FM302300 24007KT P6SM BKN040
     FM310200 25007KT P6SM SCT060=



000
FTUS41 KBOX 301123
TAFACK
TAF
KACK 301123Z 3012/3112 20013KT P6SM BKN130
     FM301600 19015G23KT P6SM OVC025
     FM302200 23014G26KT P6SM -SHRA BKN040
     FM310000 24013G28KT P6SM SCT060
     FM310600 28013G21KT P6SM FEW080=



000
FTUS41 KBOX 301123
TAFBOS
TAF
KBOS 301123Z 3012/3118 19015KT P6SM BKN080
     FM301400 20013G26KT P6SM OVC025
     FM301800 22015G23KT P6SM -SHRA OVC025
     FM302100 23009KT P6SM BKN030
     FM302300 23008KT P6SM BKN250
     FM310600 27011G20KT P6SM SCT060=



000
FTUS41 KBOX 301123
TAFPVD
TAF
KPVD 301123Z 3012/3112 18010G15KT P6SM BKN080
     FM301400 20012G20KT P6SM -SHRA OVC025
     FM301800 21014G23KT P6SM OVC025
     FM302000 22011G20KT P6SM BKN030
     FM302300 24007KT P6SM BKN040
     FM310200 25007KT P6SM SCT060=



000
FTUS41 KBOX 301123
TAFORH
TAF
KORH 301123Z 3012/3112 21011G20KT P6SM OVC045
     FM301400 21012G24KT P6SM OVC025
     FM301900 23011G22KT P6SM BKN030
     FM302100 24010G22KT P6SM BKN035
     FM310100 27008KT P6SM SCT070
     FM310600 28010G20KT P6SM SCT090=



000
FTUS41 KBOX 301123
TAFBAF
TAF
KBAF 301123Z 3012/3112 21012G18KT P6SM OVC025
     FM301500 19011G23KT P6SM OVC025
     FM301900 23009KT P6SM BKN030
     FM310200 28008KT P6SM SCT150
     FM310500 28007KT P6SM BKN040
     FM310800 28007KT P6SM SCT150=



000
FTUS41 KBOX 301123
TAFBDL
TAF
KBDL 301123Z 3012/3118 21010G18KT P6SM OVC030
     FM301300 19010G20KT P6SM OVC025
     FM301800 21009KT P6SM BKN030
     FM302000 25008KT P6SM BKN040
     FM310200 28008KT P6SM SCT090=



000
FTUS41 KBOX 301123
TAFBDL
TAF
KBDL 301123Z 3012/3118 21010G18KT P6SM OVC030
     FM301300 19010G20KT P6SM OVC025
     FM301800 21009KT P6SM BKN030
     FM302000 25008KT P6SM BKN040
     FM310200 28008KT P6SM SCT090=



000
FTUS41 KBOX 301123
TAFORH
TAF
KORH 301123Z 3012/3112 21011G20KT P6SM OVC045
     FM301400 21012G24KT P6SM OVC025
     FM301900 23011G22KT P6SM BKN030
     FM302100 24010G22KT P6SM BKN035
     FM310100 27008KT P6SM SCT070
     FM310600 28010G20KT P6SM SCT090=



000
FTUS41 KBOX 300831 AAA
TAFBDL
TAF AMD
KBDL 300831Z 3009/3112 19006KT P6SM BKN150
     FM301000 20008KT P6SM BKN090
     FM301400 20009KT P6SM OVC025
      TEMPO 3015/3018 4SM -SHRA OVC015
     FM302000 24010KT P6SM BKN040
     FM310700 28008KT P6SM SCT150=



000
FTUS41 KBOX 300831 AAA
TAFBDL
TAF AMD
KBDL 300831Z 3009/3112 19006KT P6SM BKN150
     FM301000 20008KT P6SM BKN090
     FM301400 20009KT P6SM OVC025
      TEMPO 3015/3018 4SM -SHRA OVC015
     FM302000 24010KT P6SM BKN040
     FM310700 28008KT P6SM SCT150=



000
FTUS41 KBOX 300831 AAA
TAFPVD
TAF AMD
KPVD 300831Z 3009/3106 19006KT P6SM FEW250
     FM301100 20008KT P6SM BKN100
     FM301700 21012G21KT P6SM OVC030
      TEMPO 3017/3020 4SM -SHRA OVC015
     FM302200 23009KT P6SM BKN040
     FM310300 26007KT P6SM SCT080=



000
FTUS41 KBOX 300831 AAA
TAFBDL
TAF AMD
KBDL 300831Z 3009/3112 19006KT P6SM BKN150
     FM301000 20008KT P6SM BKN090
     FM301400 20009KT P6SM OVC025
      TEMPO 3015/3018 4SM -SHRA OVC015
     FM302000 24010KT P6SM BKN040
     FM310700 28008KT P6SM SCT150=



000
FTUS41 KBOX 300831 AAA
TAFBDL
TAF AMD
KBDL 300831Z 3009/3112 19006KT P6SM BKN150
     FM301000 20008KT P6SM BKN090
     FM301400 20009KT P6SM OVC025
      TEMPO 3015/3018 4SM -SHRA OVC015
     FM302000 24010KT P6SM BKN040
     FM310700 28008KT P6SM SCT150=



000
FTUS41 KBOX 300831 AAA
TAFPVD
TAF AMD
KPVD 300831Z 3009/3106 19006KT P6SM FEW250
     FM301100 20008KT P6SM BKN100
     FM301700 21012G21KT P6SM OVC030
      TEMPO 3017/3020 4SM -SHRA OVC015
     FM302200 23009KT P6SM BKN040
     FM310300 26007KT P6SM SCT080=



000
FTUS41 KBOX 300831 AAA
TAFPVD
TAF AMD
KPVD 300831Z 3009/3106 19006KT P6SM FEW250
     FM301100 20008KT P6SM BKN100
     FM301700 21012G21KT P6SM OVC030
      TEMPO 3017/3020 4SM -SHRA OVC015
     FM302200 23009KT P6SM BKN040
     FM310300 26007KT P6SM SCT080=



000
FTUS41 KBOX 300831 AAA
TAFPVD
TAF AMD
KPVD 300831Z 3009/3106 19006KT P6SM FEW250
     FM301100 20008KT P6SM BKN100
     FM301700 21012G21KT P6SM OVC030
      TEMPO 3017/3020 4SM -SHRA OVC015
     FM302200 23009KT P6SM BKN040
     FM310300 26007KT P6SM SCT080=



000
FTUS41 KBOX 300830 AAA
TAFBOS
TAF AMD
KBOS 300830Z 3009/3112 22010KT P6SM SCT250
     FM301200 21010G21KT P6SM BKN110
     FM301700 21013G24KT P6SM OVC025
      TEMPO 3017/3020 4SM -SHRA OVC015
     FM302200 24010G18KT P6SM BKN040
     FM310300 25012KT P6SM SCT080=



000
FTUS41 KBOX 300830 AAA
TAFBOS
TAF AMD
KBOS 300830Z 3009/3112 22010KT P6SM SCT250
     FM301200 21010G21KT P6SM BKN110
     FM301700 21013G24KT P6SM OVC025
      TEMPO 3017/3020 4SM -SHRA OVC015
     FM302200 24010G18KT P6SM BKN040
     FM310300 25012KT P6SM SCT080=



000
FTUS41 KBOX 300830 AAA
TAFBOS
TAF AMD
KBOS 300830Z 3009/3112 22010KT P6SM SCT250
     FM301200 21010G21KT P6SM BKN110
     FM301700 21013G24KT P6SM OVC025
      TEMPO 3017/3020 4SM -SHRA OVC015
     FM302200 24010G18KT P6SM BKN040
     FM310300 25012KT P6SM SCT080=



000
FTUS41 KBOX 300830 AAA
TAFBOS
TAF AMD
KBOS 300830Z 3009/3112 22010KT P6SM SCT250
     FM301200 21010G21KT P6SM BKN110
     FM301700 21013G24KT P6SM OVC025
      TEMPO 3017/3020 4SM -SHRA OVC015
     FM302200 24010G18KT P6SM BKN040
     FM310300 25012KT P6SM SCT080=



    US Dept of Commerce
    National Oceanic and Atmospheric Administration
    National Weather Service
    1325 East West Highway
    Silver Spring, MD 20910
    Page Author: NWS Internet Services Team
Disclaimer
Information Quality
Credits
Glossary
Privacy Policy
Freedom of Information Act (FOIA)
About Us
Career Opportunities